<?xml version="1.0" encoding="UTF-8" standalone="no" ?>
<gpx xmlns="http://www.topografix.com/GPX/1/1" xmlns:xsi="http://www.w3.org/2001/XMLSchema-instance" xsi:schemaLocation="http://www.topografix.com/GPX/1/1 http://www.topografix.com/GPX/1/1/gpx.xsd" version="1.1" creator="VisuGPX - https://www.visugpx.com">
  <metadata>
    <name>Moyens, boucle du 11/12/2013</name>
    <desc><![CDATA[Boucle des Moyens]]></desc>
  </metadata>
  <trk>
    <name><![CDATA[11-DEC-13 boucle des moyens]]></name>
    <trkseg>
      <trkpt lat="43.00686" lon="-0.09399">
        <ele>411.58</ele>
        <time>2013-12-11T12:45:22Z</time>
      </trkpt>
      <trkpt lat="43.00679" lon="-0.0939">
        <ele>416.39</ele>
        <time>2013-12-11T12:45:25Z</time>
      </trkpt>
      <trkpt lat="43.00676" lon="-0.09387">
        <ele>416.39</ele>
        <time>2013-12-11T12:45:26Z</time>
      </trkpt>
      <trkpt lat="43.00667" lon="-0.09375">
        <ele>416.87</ele>
        <time>2013-12-11T12:45:29Z</time>
      </trkpt>
      <trkpt lat="43.00661" lon="-0.09368">
        <ele>417.35</ele>
        <time>2013-12-11T12:45:31Z</time>
      </trkpt>
      <trkpt lat="43.00642" lon="-0.09345">
        <ele>421.19</ele>
        <time>2013-12-11T12:45:38Z</time>
      </trkpt>
      <trkpt lat="43.0064" lon="-0.09342">
        <ele>422.16</ele>
        <time>2013-12-11T12:45:40Z</time>
      </trkpt>
      <trkpt lat="43.00636" lon="-0.09337">
        <ele>422.16</ele>
        <time>2013-12-11T12:45:43Z</time>
      </trkpt>
      <trkpt lat="43.00621" lon="-0.09319">
        <ele>422.16</ele>
        <time>2013-12-11T12:45:48Z</time>
      </trkpt>
      <trkpt lat="43.00605" lon="-0.09299">
        <ele>423.12</ele>
        <time>2013-12-11T12:45:53Z</time>
      </trkpt>
      <trkpt lat="43.00565" lon="-0.09252">
        <ele>425.04</ele>
        <time>2013-12-11T12:46:07Z</time>
      </trkpt>
      <trkpt lat="43.00546" lon="-0.09228">
        <ele>425.04</ele>
        <time>2013-12-11T12:46:13Z</time>
      </trkpt>
      <trkpt lat="43.0053" lon="-0.0921">
        <ele>426</ele>
        <time>2013-12-11T12:46:18Z</time>
      </trkpt>
      <trkpt lat="43.00513" lon="-0.09189">
        <ele>426</ele>
        <time>2013-12-11T12:46:23Z</time>
      </trkpt>
      <trkpt lat="43.00502" lon="-0.09175">
        <ele>425.52</ele>
        <time>2013-12-11T12:46:26Z</time>
      </trkpt>
      <trkpt lat="43.00488" lon="-0.09159">
        <ele>426</ele>
        <time>2013-12-11T12:46:30Z</time>
      </trkpt>
      <trkpt lat="43.00419" lon="-0.09092">
        <ele>425.52</ele>
        <time>2013-12-11T12:46:47Z</time>
      </trkpt>
      <trkpt lat="43.00341" lon="-0.09035">
        <ele>426.48</ele>
        <time>2013-12-11T12:47:05Z</time>
      </trkpt>
      <trkpt lat="43.00305" lon="-0.0901">
        <ele>426.96</ele>
        <time>2013-12-11T12:47:14Z</time>
      </trkpt>
      <trkpt lat="43.00251" lon="-0.08975">
        <ele>427.92</ele>
        <time>2013-12-11T12:47:27Z</time>
      </trkpt>
      <trkpt lat="43.00229" lon="-0.08974">
        <ele>426.48</ele>
        <time>2013-12-11T12:47:31Z</time>
      </trkpt>
      <trkpt lat="43.00219" lon="-0.08966">
        <ele>425.52</ele>
        <time>2013-12-11T12:47:33Z</time>
      </trkpt>
      <trkpt lat="43.00216" lon="-0.0895">
        <ele>427.44</ele>
        <time>2013-12-11T12:47:35Z</time>
      </trkpt>
      <trkpt lat="43.00188" lon="-0.08927">
        <ele>427.44</ele>
        <time>2013-12-11T12:47:45Z</time>
      </trkpt>
      <trkpt lat="43.00185" lon="-0.08925">
        <ele>427.44</ele>
        <time>2013-12-11T12:47:46Z</time>
      </trkpt>
      <trkpt lat="43.00174" lon="-0.08918">
        <ele>427.92</ele>
        <time>2013-12-11T12:47:49Z</time>
      </trkpt>
      <trkpt lat="43.00127" lon="-0.08886">
        <ele>427.92</ele>
        <time>2013-12-11T12:48:02Z</time>
      </trkpt>
      <trkpt lat="43.00102" lon="-0.08868">
        <ele>428.4</ele>
        <time>2013-12-11T12:48:09Z</time>
      </trkpt>
      <trkpt lat="43.00029" lon="-0.08819">
        <ele>428.89</ele>
        <time>2013-12-11T12:48:29Z</time>
      </trkpt>
      <trkpt lat="43.00008" lon="-0.08805">
        <ele>429.37</ele>
        <time>2013-12-11T12:48:35Z</time>
      </trkpt>
      <trkpt lat="42.99993" lon="-0.08794">
        <ele>429.37</ele>
        <time>2013-12-11T12:48:39Z</time>
      </trkpt>
      <trkpt lat="42.99977" lon="-0.08784">
        <ele>428.89</ele>
        <time>2013-12-11T12:48:44Z</time>
      </trkpt>
      <trkpt lat="42.9997" lon="-0.08769">
        <ele>426</ele>
        <time>2013-12-11T12:48:49Z</time>
      </trkpt>
      <trkpt lat="42.99968" lon="-0.08767">
        <ele>425.52</ele>
        <time>2013-12-11T12:48:50Z</time>
      </trkpt>
      <trkpt lat="42.99945" lon="-0.0875">
        <ele>425.04</ele>
        <time>2013-12-11T12:48:58Z</time>
      </trkpt>
      <trkpt lat="42.99934" lon="-0.08727">
        <ele>424.08</ele>
        <time>2013-12-11T12:49:04Z</time>
      </trkpt>
      <trkpt lat="42.99927" lon="-0.08721">
        <ele>424.08</ele>
        <time>2013-12-11T12:49:15Z</time>
      </trkpt>
      <trkpt lat="42.99924" lon="-0.08718">
        <ele>424.56</ele>
        <time>2013-12-11T12:49:17Z</time>
      </trkpt>
      <trkpt lat="42.99887" lon="-0.08692">
        <ele>423.6</ele>
        <time>2013-12-11T12:49:28Z</time>
      </trkpt>
      <trkpt lat="42.99826" lon="-0.08653">
        <ele>422.64</ele>
        <time>2013-12-11T12:49:44Z</time>
      </trkpt>
      <trkpt lat="42.99818" lon="-0.08648">
        <ele>422.16</ele>
        <time>2013-12-11T12:49:46Z</time>
      </trkpt>
      <trkpt lat="42.99801" lon="-0.08637">
        <ele>421.68</ele>
        <time>2013-12-11T12:49:50Z</time>
      </trkpt>
      <trkpt lat="42.99795" lon="-0.08634">
        <ele>421.68</ele>
        <time>2013-12-11T12:49:52Z</time>
      </trkpt>
      <trkpt lat="42.9979" lon="-0.08611">
        <ele>422.16</ele>
        <time>2013-12-11T12:49:58Z</time>
      </trkpt>
      <trkpt lat="42.99791" lon="-0.08566">
        <ele>422.16</ele>
        <time>2013-12-11T12:50:06Z</time>
      </trkpt>
      <trkpt lat="42.99792" lon="-0.08473">
        <ele>418.79</ele>
        <time>2013-12-11T12:50:19Z</time>
      </trkpt>
      <trkpt lat="42.9981" lon="-0.08415">
        <ele>420.23</ele>
        <time>2013-12-11T12:50:27Z</time>
      </trkpt>
      <trkpt lat="42.99813" lon="-0.0837">
        <ele>419.75</ele>
        <time>2013-12-11T12:50:34Z</time>
      </trkpt>
      <trkpt lat="42.99813" lon="-0.08302">
        <ele>419.75</ele>
        <time>2013-12-11T12:50:44Z</time>
      </trkpt>
      <trkpt lat="42.99832" lon="-0.08263">
        <ele>418.79</ele>
        <time>2013-12-11T12:50:51Z</time>
      </trkpt>
      <trkpt lat="42.99842" lon="-0.08257">
        <ele>418.79</ele>
        <time>2013-12-11T12:50:53Z</time>
      </trkpt>
      <trkpt lat="42.99879" lon="-0.08242">
        <ele>419.27</ele>
        <time>2013-12-11T12:51:01Z</time>
      </trkpt>
      <trkpt lat="42.99892" lon="-0.08203">
        <ele>419.27</ele>
        <time>2013-12-11T12:51:08Z</time>
      </trkpt>
      <trkpt lat="42.99888" lon="-0.08175">
        <ele>418.79</ele>
        <time>2013-12-11T12:51:12Z</time>
      </trkpt>
      <trkpt lat="42.99905" lon="-0.08118">
        <ele>418.79</ele>
        <time>2013-12-11T12:51:22Z</time>
      </trkpt>
      <trkpt lat="42.99906" lon="-0.08115">
        <ele>418.79</ele>
        <time>2013-12-11T12:51:23Z</time>
      </trkpt>
      <trkpt lat="42.99922" lon="-0.08099">
        <ele>418.79</ele>
        <time>2013-12-11T12:51:31Z</time>
      </trkpt>
      <trkpt lat="42.99964" lon="-0.08096">
        <ele>418.79</ele>
        <time>2013-12-11T12:51:44Z</time>
      </trkpt>
      <trkpt lat="42.99977" lon="-0.08096">
        <ele>417.35</ele>
        <time>2013-12-11T12:51:48Z</time>
      </trkpt>
      <trkpt lat="42.9999" lon="-0.08095">
        <ele>417.83</ele>
        <time>2013-12-11T12:51:52Z</time>
      </trkpt>
      <trkpt lat="43.00045" lon="-0.08091">
        <ele>417.35</ele>
        <time>2013-12-11T12:52:07Z</time>
      </trkpt>
      <trkpt lat="43.00071" lon="-0.08093">
        <ele>417.83</ele>
        <time>2013-12-11T12:52:15Z</time>
      </trkpt>
      <trkpt lat="43.00102" lon="-0.08097">
        <ele>417.83</ele>
        <time>2013-12-11T12:52:24Z</time>
      </trkpt>
      <trkpt lat="43.00118" lon="-0.08095">
        <ele>417.83</ele>
        <time>2013-12-11T12:52:28Z</time>
      </trkpt>
      <trkpt lat="43.00123" lon="-0.08097">
        <ele>418.79</ele>
        <time>2013-12-11T12:52:30Z</time>
      </trkpt>
      <trkpt lat="43.00168" lon="-0.081">
        <ele>419.27</ele>
        <time>2013-12-11T12:52:43Z</time>
      </trkpt>
      <trkpt lat="43.00207" lon="-0.08107">
        <ele>420.23</ele>
        <time>2013-12-11T12:52:57Z</time>
      </trkpt>
      <trkpt lat="43.00238" lon="-0.08112">
        <ele>420.71</ele>
        <time>2013-12-11T12:53:08Z</time>
      </trkpt>
      <trkpt lat="43.00255" lon="-0.08112">
        <ele>420.23</ele>
        <time>2013-12-11T12:53:13Z</time>
      </trkpt>
      <trkpt lat="43.00277" lon="-0.08114">
        <ele>418.79</ele>
        <time>2013-12-11T12:53:18Z</time>
      </trkpt>
      <trkpt lat="43.00287" lon="-0.08116">
        <ele>418.31</ele>
        <time>2013-12-11T12:53:20Z</time>
      </trkpt>
      <trkpt lat="43.00351" lon="-0.08124">
        <ele>417.83</ele>
        <time>2013-12-11T12:53:33Z</time>
      </trkpt>
      <trkpt lat="43.0038" lon="-0.08129">
        <ele>417.35</ele>
        <time>2013-12-11T12:53:39Z</time>
      </trkpt>
      <trkpt lat="43.00401" lon="-0.08131">
        <ele>416.87</ele>
        <time>2013-12-11T12:53:43Z</time>
      </trkpt>
      <trkpt lat="43.00476" lon="-0.08139">
        <ele>417.35</ele>
        <time>2013-12-11T12:53:58Z</time>
      </trkpt>
      <trkpt lat="43.00485" lon="-0.08141">
        <ele>417.83</ele>
        <time>2013-12-11T12:54:00Z</time>
      </trkpt>
      <trkpt lat="43.00493" lon="-0.08144">
        <ele>417.83</ele>
        <time>2013-12-11T12:54:02Z</time>
      </trkpt>
      <trkpt lat="43.00507" lon="-0.08152">
        <ele>420.23</ele>
        <time>2013-12-11T12:54:06Z</time>
      </trkpt>
      <trkpt lat="43.00537" lon="-0.08188">
        <ele>420.23</ele>
        <time>2013-12-11T12:54:18Z</time>
      </trkpt>
      <trkpt lat="43.0054" lon="-0.08171">
        <ele>420.71</ele>
        <time>2013-12-11T12:54:26Z</time>
      </trkpt>
      <trkpt lat="43.00539" lon="-0.08121">
        <ele>420.71</ele>
        <time>2013-12-11T12:54:38Z</time>
      </trkpt>
      <trkpt lat="43.00525" lon="-0.08077">
        <ele>421.19</ele>
        <time>2013-12-11T12:54:49Z</time>
      </trkpt>
      <trkpt lat="43.00497" lon="-0.08035">
        <ele>420.71</ele>
        <time>2013-12-11T12:55:02Z</time>
      </trkpt>
      <trkpt lat="43.00474" lon="-0.07996">
        <ele>420.23</ele>
        <time>2013-12-11T12:55:13Z</time>
      </trkpt>
      <trkpt lat="43.00473" lon="-0.0799">
        <ele>420.23</ele>
        <time>2013-12-11T12:55:15Z</time>
      </trkpt>
      <trkpt lat="43.00461" lon="-0.07974">
        <ele>420.23</ele>
        <time>2013-12-11T12:55:25Z</time>
      </trkpt>
      <trkpt lat="43.0046" lon="-0.07974">
        <ele>419.75</ele>
        <time>2013-12-11T12:55:41Z</time>
      </trkpt>
      <trkpt lat="43.00461" lon="-0.07949">
        <ele>421.19</ele>
        <time>2013-12-11T12:55:51Z</time>
      </trkpt>
      <trkpt lat="43.00455" lon="-0.0794">
        <ele>422.64</ele>
        <time>2013-12-11T12:55:57Z</time>
      </trkpt>
      <trkpt lat="43.00453" lon="-0.07936">
        <ele>422.64</ele>
        <time>2013-12-11T12:56:00Z</time>
      </trkpt>
      <trkpt lat="43.00447" lon="-0.07927">
        <ele>424.56</ele>
        <time>2013-12-11T12:56:11Z</time>
      </trkpt>
      <trkpt lat="43.00447" lon="-0.07927">
        <ele>426.48</ele>
        <time>2013-12-11T12:56:15Z</time>
      </trkpt>
      <trkpt lat="43.00445" lon="-0.07926">
        <ele>427.44</ele>
        <time>2013-12-11T12:56:29Z</time>
      </trkpt>
      <trkpt lat="43.00445" lon="-0.07921">
        <ele>428.89</ele>
        <time>2013-12-11T12:56:40Z</time>
      </trkpt>
      <trkpt lat="43.00444" lon="-0.07915">
        <ele>428.89</ele>
        <time>2013-12-11T12:56:55Z</time>
      </trkpt>
      <trkpt lat="43.00445" lon="-0.07911">
        <ele>429.37</ele>
        <time>2013-12-11T12:57:22Z</time>
      </trkpt>
      <trkpt lat="43.00445" lon="-0.07911">
        <ele>429.37</ele>
        <time>2013-12-11T12:57:23Z</time>
      </trkpt>
      <trkpt lat="43.00429" lon="-0.07897">
        <ele>430.33</ele>
        <time>2013-12-11T12:57:35Z</time>
      </trkpt>
      <trkpt lat="43.00404" lon="-0.07873">
        <ele>432.25</ele>
        <time>2013-12-11T12:57:49Z</time>
      </trkpt>
      <trkpt lat="43.00387" lon="-0.07838">
        <ele>433.69</ele>
        <time>2013-12-11T12:58:02Z</time>
      </trkpt>
      <trkpt lat="43.00376" lon="-0.0781">
        <ele>435.13</ele>
        <time>2013-12-11T12:58:13Z</time>
      </trkpt>
      <trkpt lat="43.00373" lon="-0.07795">
        <ele>436.1</ele>
        <time>2013-12-11T12:58:19Z</time>
      </trkpt>
      <trkpt lat="43.00367" lon="-0.07759">
        <ele>437.06</ele>
        <time>2013-12-11T12:58:31Z</time>
      </trkpt>
      <trkpt lat="43.00354" lon="-0.07714">
        <ele>438.02</ele>
        <time>2013-12-11T12:58:45Z</time>
      </trkpt>
      <trkpt lat="43.00347" lon="-0.07678">
        <ele>438.5</ele>
        <time>2013-12-11T12:58:57Z</time>
      </trkpt>
      <trkpt lat="43.00346" lon="-0.07675">
        <ele>438.5</ele>
        <time>2013-12-11T12:58:58Z</time>
      </trkpt>
      <trkpt lat="43.00345" lon="-0.07671">
        <ele>438.98</ele>
        <time>2013-12-11T12:59:10Z</time>
      </trkpt>
      <trkpt lat="43.00343" lon="-0.0767">
        <ele>439.46</ele>
        <time>2013-12-11T12:59:13Z</time>
      </trkpt>
      <trkpt lat="43.0034" lon="-0.07656">
        <ele>438.98</ele>
        <time>2013-12-11T12:59:19Z</time>
      </trkpt>
      <trkpt lat="43.00327" lon="-0.07615">
        <ele>439.94</ele>
        <time>2013-12-11T12:59:31Z</time>
      </trkpt>
      <trkpt lat="43.0032" lon="-0.07573">
        <ele>439.94</ele>
        <time>2013-12-11T12:59:43Z</time>
      </trkpt>
      <trkpt lat="43.00322" lon="-0.07522">
        <ele>441.86</ele>
        <time>2013-12-11T12:59:57Z</time>
      </trkpt>
      <trkpt lat="43.00323" lon="-0.07475">
        <ele>442.82</ele>
        <time>2013-12-11T13:00:11Z</time>
      </trkpt>
      <trkpt lat="43.00327" lon="-0.07463">
        <ele>442.82</ele>
        <time>2013-12-11T13:00:14Z</time>
      </trkpt>
      <trkpt lat="43.00339" lon="-0.07436">
        <ele>441.38</ele>
        <time>2013-12-11T13:00:19Z</time>
      </trkpt>
      <trkpt lat="43.00336" lon="-0.07402">
        <ele>438.98</ele>
        <time>2013-12-11T13:00:24Z</time>
      </trkpt>
      <trkpt lat="43.00337" lon="-0.07377">
        <ele>438.5</ele>
        <time>2013-12-11T13:00:27Z</time>
      </trkpt>
      <trkpt lat="43.00351" lon="-0.0735">
        <ele>440.9</ele>
        <time>2013-12-11T13:00:32Z</time>
      </trkpt>
      <trkpt lat="43.00358" lon="-0.07342">
        <ele>442.34</ele>
        <time>2013-12-11T13:00:35Z</time>
      </trkpt>
      <trkpt lat="43.00391" lon="-0.07313">
        <ele>443.79</ele>
        <time>2013-12-11T13:00:48Z</time>
      </trkpt>
      <trkpt lat="43.00421" lon="-0.07293">
        <ele>444.75</ele>
        <time>2013-12-11T13:01:00Z</time>
      </trkpt>
      <trkpt lat="43.00454" lon="-0.07278">
        <ele>446.67</ele>
        <time>2013-12-11T13:01:14Z</time>
      </trkpt>
      <trkpt lat="43.00476" lon="-0.07263">
        <ele>450.03</ele>
        <time>2013-12-11T13:01:25Z</time>
      </trkpt>
      <trkpt lat="43.00481" lon="-0.0726">
        <ele>450.03</ele>
        <time>2013-12-11T13:01:27Z</time>
      </trkpt>
      <trkpt lat="43.00484" lon="-0.07256">
        <ele>451.48</ele>
        <time>2013-12-11T13:01:40Z</time>
      </trkpt>
      <trkpt lat="43.00485" lon="-0.07256">
        <ele>451.48</ele>
        <time>2013-12-11T13:02:05Z</time>
      </trkpt>
      <trkpt lat="43.00485" lon="-0.07254">
        <ele>451.48</ele>
        <time>2013-12-11T13:02:27Z</time>
      </trkpt>
      <trkpt lat="43.00488" lon="-0.07249">
        <ele>451.48</ele>
        <time>2013-12-11T13:02:31Z</time>
      </trkpt>
      <trkpt lat="43.00511" lon="-0.07231">
        <ele>452.92</ele>
        <time>2013-12-11T13:02:44Z</time>
      </trkpt>
      <trkpt lat="43.00546" lon="-0.0721">
        <ele>455.8</ele>
        <time>2013-12-11T13:03:03Z</time>
      </trkpt>
      <trkpt lat="43.00549" lon="-0.0721">
        <ele>456.28</ele>
        <time>2013-12-11T13:03:05Z</time>
      </trkpt>
      <trkpt lat="43.00549" lon="-0.07207">
        <ele>456.28</ele>
        <time>2013-12-11T13:03:15Z</time>
      </trkpt>
      <trkpt lat="43.00549" lon="-0.07207">
        <ele>456.76</ele>
        <time>2013-12-11T13:03:37Z</time>
      </trkpt>
      <trkpt lat="43.00548" lon="-0.07207">
        <ele>455.32</ele>
        <time>2013-12-11T13:04:01Z</time>
      </trkpt>
      <trkpt lat="43.00547" lon="-0.07209">
        <ele>456.28</ele>
        <time>2013-12-11T13:04:40Z</time>
      </trkpt>
      <trkpt lat="43.00547" lon="-0.07209">
        <ele>456.76</ele>
        <time>2013-12-11T13:04:58Z</time>
      </trkpt>
      <trkpt lat="43.00548" lon="-0.07208">
        <ele>457.24</ele>
        <time>2013-12-11T13:05:17Z</time>
      </trkpt>
      <trkpt lat="43.00548" lon="-0.07208">
        <ele>457.24</ele>
        <time>2013-12-11T13:05:23Z</time>
      </trkpt>
      <trkpt lat="43.00553" lon="-0.07201">
        <ele>457.72</ele>
        <time>2013-12-11T13:05:29Z</time>
      </trkpt>
      <trkpt lat="43.00581" lon="-0.07174">
        <ele>458.21</ele>
        <time>2013-12-11T13:05:43Z</time>
      </trkpt>
      <trkpt lat="43.00615" lon="-0.07161">
        <ele>458.21</ele>
        <time>2013-12-11T13:05:54Z</time>
      </trkpt>
      <trkpt lat="43.00631" lon="-0.07117">
        <ele>457.72</ele>
        <time>2013-12-11T13:06:04Z</time>
      </trkpt>
      <trkpt lat="43.00658" lon="-0.071">
        <ele>458.21</ele>
        <time>2013-12-11T13:06:13Z</time>
      </trkpt>
      <trkpt lat="43.0066" lon="-0.07099">
        <ele>458.21</ele>
        <time>2013-12-11T13:06:14Z</time>
      </trkpt>
      <trkpt lat="43.00666" lon="-0.07097">
        <ele>459.65</ele>
        <time>2013-12-11T13:06:18Z</time>
      </trkpt>
      <trkpt lat="43.00675" lon="-0.07087">
        <ele>460.61</ele>
        <time>2013-12-11T13:06:23Z</time>
      </trkpt>
      <trkpt lat="43.00709" lon="-0.07068">
        <ele>460.61</ele>
        <time>2013-12-11T13:06:35Z</time>
      </trkpt>
      <trkpt lat="43.00749" lon="-0.07048">
        <ele>460.61</ele>
        <time>2013-12-11T13:06:49Z</time>
      </trkpt>
      <trkpt lat="43.00802" lon="-0.07021">
        <ele>457.24</ele>
        <time>2013-12-11T13:07:01Z</time>
      </trkpt>
      <trkpt lat="43.00808" lon="-0.07018">
        <ele>457.72</ele>
        <time>2013-12-11T13:07:02Z</time>
      </trkpt>
      <trkpt lat="43.00828" lon="-0.07008">
        <ele>457.24</ele>
        <time>2013-12-11T13:07:06Z</time>
      </trkpt>
      <trkpt lat="43.00841" lon="-0.07006">
        <ele>456.76</ele>
        <time>2013-12-11T13:07:09Z</time>
      </trkpt>
      <trkpt lat="43.00855" lon="-0.06997">
        <ele>456.28</ele>
        <time>2013-12-11T13:07:13Z</time>
      </trkpt>
      <trkpt lat="43.0086" lon="-0.06995">
        <ele>455.32</ele>
        <time>2013-12-11T13:07:14Z</time>
      </trkpt>
      <trkpt lat="43.00884" lon="-0.06988">
        <ele>454.36</ele>
        <time>2013-12-11T13:07:20Z</time>
      </trkpt>
      <trkpt lat="43.00916" lon="-0.06997">
        <ele>453.88</ele>
        <time>2013-12-11T13:07:32Z</time>
      </trkpt>
      <trkpt lat="43.0095" lon="-0.07003">
        <ele>451.96</ele>
        <time>2013-12-11T13:07:42Z</time>
      </trkpt>
      <trkpt lat="43.00965" lon="-0.06997">
        <ele>451.48</ele>
        <time>2013-12-11T13:07:47Z</time>
      </trkpt>
      <trkpt lat="43.01" lon="-0.06993">
        <ele>451.48</ele>
        <time>2013-12-11T13:08:00Z</time>
      </trkpt>
      <trkpt lat="43.01038" lon="-0.06997">
        <ele>451.96</ele>
        <time>2013-12-11T13:08:15Z</time>
      </trkpt>
      <trkpt lat="43.01068" lon="-0.06991">
        <ele>453.88</ele>
        <time>2013-12-11T13:08:28Z</time>
      </trkpt>
      <trkpt lat="43.01093" lon="-0.06991">
        <ele>457.24</ele>
        <time>2013-12-11T13:08:40Z</time>
      </trkpt>
      <trkpt lat="43.011" lon="-0.06989">
        <ele>456.76</ele>
        <time>2013-12-11T13:08:52Z</time>
      </trkpt>
      <trkpt lat="43.01101" lon="-0.06987">
        <ele>456.76</ele>
        <time>2013-12-11T13:09:26Z</time>
      </trkpt>
      <trkpt lat="43.011" lon="-0.06989">
        <ele>457.24</ele>
        <time>2013-12-11T13:09:52Z</time>
      </trkpt>
      <trkpt lat="43.011" lon="-0.06989">
        <ele>457.24</ele>
        <time>2013-12-11T13:10:20Z</time>
      </trkpt>
      <trkpt lat="43.01099" lon="-0.06988">
        <ele>456.28</ele>
        <time>2013-12-11T13:10:39Z</time>
      </trkpt>
      <trkpt lat="43.01101" lon="-0.0699">
        <ele>456.76</ele>
        <time>2013-12-11T13:11:11Z</time>
      </trkpt>
      <trkpt lat="43.01106" lon="-0.06986">
        <ele>455.8</ele>
        <time>2013-12-11T13:11:28Z</time>
      </trkpt>
      <trkpt lat="43.01109" lon="-0.06984">
        <ele>455.32</ele>
        <time>2013-12-11T13:11:29Z</time>
      </trkpt>
      <trkpt lat="43.01118" lon="-0.06966">
        <ele>454.36</ele>
        <time>2013-12-11T13:11:33Z</time>
      </trkpt>
      <trkpt lat="43.01132" lon="-0.06917">
        <ele>454.36</ele>
        <time>2013-12-11T13:11:44Z</time>
      </trkpt>
      <trkpt lat="43.01147" lon="-0.06857">
        <ele>452.44</ele>
        <time>2013-12-11T13:11:58Z</time>
      </trkpt>
      <trkpt lat="43.01152" lon="-0.06822">
        <ele>449.55</ele>
        <time>2013-12-11T13:12:05Z</time>
      </trkpt>
      <trkpt lat="43.01158" lon="-0.06802">
        <ele>446.67</ele>
        <time>2013-12-11T13:12:10Z</time>
      </trkpt>
      <trkpt lat="43.0117" lon="-0.06772">
        <ele>442.34</ele>
        <time>2013-12-11T13:12:15Z</time>
      </trkpt>
      <trkpt lat="43.01183" lon="-0.0675">
        <ele>441.38</ele>
        <time>2013-12-11T13:12:21Z</time>
      </trkpt>
      <trkpt lat="43.01192" lon="-0.06736">
        <ele>442.34</ele>
        <time>2013-12-11T13:12:26Z</time>
      </trkpt>
      <trkpt lat="43.01205" lon="-0.06716">
        <ele>442.82</ele>
        <time>2013-12-11T13:12:39Z</time>
      </trkpt>
      <trkpt lat="43.01206" lon="-0.06714">
        <ele>443.31</ele>
        <time>2013-12-11T13:12:44Z</time>
      </trkpt>
      <trkpt lat="43.01235" lon="-0.06707">
        <ele>443.79</ele>
        <time>2013-12-11T13:12:55Z</time>
      </trkpt>
      <trkpt lat="43.01268" lon="-0.06699">
        <ele>445.71</ele>
        <time>2013-12-11T13:13:07Z</time>
      </trkpt>
      <trkpt lat="43.01302" lon="-0.06688">
        <ele>447.15</ele>
        <time>2013-12-11T13:13:19Z</time>
      </trkpt>
      <trkpt lat="43.0134" lon="-0.06673">
        <ele>450.03</ele>
        <time>2013-12-11T13:13:33Z</time>
      </trkpt>
      <trkpt lat="43.01348" lon="-0.0667">
        <ele>451</ele>
        <time>2013-12-11T13:13:44Z</time>
      </trkpt>
      <trkpt lat="43.01347" lon="-0.06669">
        <ele>451</ele>
        <time>2013-12-11T13:13:54Z</time>
      </trkpt>
      <trkpt lat="43.01347" lon="-0.06691">
        <ele>450.03</ele>
        <time>2013-12-11T13:14:00Z</time>
      </trkpt>
      <trkpt lat="43.01351" lon="-0.06755">
        <ele>447.15</ele>
        <time>2013-12-11T13:14:09Z</time>
      </trkpt>
      <trkpt lat="43.01337" lon="-0.06781">
        <ele>445.71</ele>
        <time>2013-12-11T13:14:14Z</time>
      </trkpt>
      <trkpt lat="43.01321" lon="-0.06806">
        <ele>443.31</ele>
        <time>2013-12-11T13:14:19Z</time>
      </trkpt>
      <trkpt lat="43.0132" lon="-0.06843">
        <ele>441.38</ele>
        <time>2013-12-11T13:14:23Z</time>
      </trkpt>
      <trkpt lat="43.0133" lon="-0.06911">
        <ele>439.46</ele>
        <time>2013-12-11T13:14:31Z</time>
      </trkpt>
      <trkpt lat="43.01356" lon="-0.07006">
        <ele>436.1</ele>
        <time>2013-12-11T13:14:42Z</time>
      </trkpt>
      <trkpt lat="43.01363" lon="-0.07037">
        <ele>435.61</ele>
        <time>2013-12-11T13:14:45Z</time>
      </trkpt>
      <trkpt lat="43.01367" lon="-0.07058">
        <ele>434.65</ele>
        <time>2013-12-11T13:14:47Z</time>
      </trkpt>
      <trkpt lat="43.01369" lon="-0.07108">
        <ele>434.17</ele>
        <time>2013-12-11T13:14:52Z</time>
      </trkpt>
      <trkpt lat="43.01384" lon="-0.07164">
        <ele>434.17</ele>
        <time>2013-12-11T13:14:59Z</time>
      </trkpt>
      <trkpt lat="43.01398" lon="-0.0719">
        <ele>432.73</ele>
        <time>2013-12-11T13:15:03Z</time>
      </trkpt>
      <trkpt lat="43.01418" lon="-0.07218">
        <ele>430.33</ele>
        <time>2013-12-11T13:15:07Z</time>
      </trkpt>
      <trkpt lat="43.01415" lon="-0.07256">
        <ele>431.29</ele>
        <time>2013-12-11T13:15:12Z</time>
      </trkpt>
      <trkpt lat="43.01398" lon="-0.07323">
        <ele>434.17</ele>
        <time>2013-12-11T13:15:24Z</time>
      </trkpt>
      <trkpt lat="43.01382" lon="-0.07359">
        <ele>435.61</ele>
        <time>2013-12-11T13:15:35Z</time>
      </trkpt>
      <trkpt lat="43.01367" lon="-0.07384">
        <ele>438.5</ele>
        <time>2013-12-11T13:15:46Z</time>
      </trkpt>
      <trkpt lat="43.01355" lon="-0.07409">
        <ele>441.86</ele>
        <time>2013-12-11T13:15:57Z</time>
      </trkpt>
      <trkpt lat="43.01358" lon="-0.07444">
        <ele>443.31</ele>
        <time>2013-12-11T13:16:08Z</time>
      </trkpt>
      <trkpt lat="43.01355" lon="-0.0751">
        <ele>444.75</ele>
        <time>2013-12-11T13:16:26Z</time>
      </trkpt>
      <trkpt lat="43.01364" lon="-0.07557">
        <ele>445.71</ele>
        <time>2013-12-11T13:16:38Z</time>
      </trkpt>
      <trkpt lat="43.01375" lon="-0.07574">
        <ele>449.07</ele>
        <time>2013-12-11T13:16:49Z</time>
      </trkpt>
      <trkpt lat="43.01376" lon="-0.07574">
        <ele>449.07</ele>
        <time>2013-12-11T13:16:50Z</time>
      </trkpt>
      <trkpt lat="43.01387" lon="-0.0758">
        <ele>451.48</ele>
        <time>2013-12-11T13:16:58Z</time>
      </trkpt>
      <trkpt lat="43.0141" lon="-0.07591">
        <ele>455.32</ele>
        <time>2013-12-11T13:17:13Z</time>
      </trkpt>
      <trkpt lat="43.01431" lon="-0.07596">
        <ele>457.72</ele>
        <time>2013-12-11T13:17:27Z</time>
      </trkpt>
      <trkpt lat="43.01449" lon="-0.07597">
        <ele>460.61</ele>
        <time>2013-12-11T13:17:39Z</time>
      </trkpt>
      <trkpt lat="43.01462" lon="-0.07589">
        <ele>463.97</ele>
        <time>2013-12-11T13:17:49Z</time>
      </trkpt>
      <trkpt lat="43.01478" lon="-0.07583">
        <ele>466.86</ele>
        <time>2013-12-11T13:18:00Z</time>
      </trkpt>
      <trkpt lat="43.01482" lon="-0.07581">
        <ele>467.34</ele>
        <time>2013-12-11T13:18:03Z</time>
      </trkpt>
      <trkpt lat="43.01501" lon="-0.07582">
        <ele>470.7</ele>
        <time>2013-12-11T13:18:15Z</time>
      </trkpt>
      <trkpt lat="43.01509" lon="-0.07583">
        <ele>471.66</ele>
        <time>2013-12-11T13:18:21Z</time>
      </trkpt>
      <trkpt lat="43.01505" lon="-0.07589">
        <ele>472.14</ele>
        <time>2013-12-11T13:18:32Z</time>
      </trkpt>
      <trkpt lat="43.01514" lon="-0.07584">
        <ele>472.14</ele>
        <time>2013-12-11T13:18:46Z</time>
      </trkpt>
      <trkpt lat="43.01509" lon="-0.07586">
        <ele>472.14</ele>
        <time>2013-12-11T13:18:52Z</time>
      </trkpt>
      <trkpt lat="43.01504" lon="-0.07584">
        <ele>471.66</ele>
        <time>2013-12-11T13:18:56Z</time>
      </trkpt>
      <trkpt lat="43.01491" lon="-0.07582">
        <ele>468.78</ele>
        <time>2013-12-11T13:19:02Z</time>
      </trkpt>
      <trkpt lat="43.0147" lon="-0.07587">
        <ele>464.45</ele>
        <time>2013-12-11T13:19:12Z</time>
      </trkpt>
      <trkpt lat="43.01468" lon="-0.07588">
        <ele>464.45</ele>
        <time>2013-12-11T13:19:13Z</time>
      </trkpt>
      <trkpt lat="43.01466" lon="-0.07588">
        <ele>464.45</ele>
        <time>2013-12-11T13:19:17Z</time>
      </trkpt>
      <trkpt lat="43.01481" lon="-0.07584">
        <ele>467.34</ele>
        <time>2013-12-11T13:19:28Z</time>
      </trkpt>
      <trkpt lat="43.01502" lon="-0.07582">
        <ele>470.7</ele>
        <time>2013-12-11T13:19:41Z</time>
      </trkpt>
      <trkpt lat="43.01504" lon="-0.07582">
        <ele>471.18</ele>
        <time>2013-12-11T13:19:43Z</time>
      </trkpt>
      <trkpt lat="43.01506" lon="-0.07584">
        <ele>471.66</ele>
        <time>2013-12-11T13:19:45Z</time>
      </trkpt>
      <trkpt lat="43.01507" lon="-0.07586">
        <ele>472.14</ele>
        <time>2013-12-11T13:19:47Z</time>
      </trkpt>
      <trkpt lat="43.01513" lon="-0.07585">
        <ele>471.66</ele>
        <time>2013-12-11T13:20:01Z</time>
      </trkpt>
      <trkpt lat="43.01513" lon="-0.07584">
        <ele>471.66</ele>
        <time>2013-12-11T13:20:26Z</time>
      </trkpt>
      <trkpt lat="43.01513" lon="-0.07581">
        <ele>471.66</ele>
        <time>2013-12-11T13:20:52Z</time>
      </trkpt>
      <trkpt lat="43.01513" lon="-0.07583">
        <ele>472.63</ele>
        <time>2013-12-11T13:21:18Z</time>
      </trkpt>
      <trkpt lat="43.01513" lon="-0.07583">
        <ele>472.14</ele>
        <time>2013-12-11T13:21:48Z</time>
      </trkpt>
      <trkpt lat="43.01521" lon="-0.07576">
        <ele>471.18</ele>
        <time>2013-12-11T13:21:53Z</time>
      </trkpt>
      <trkpt lat="43.01534" lon="-0.07557">
        <ele>469.74</ele>
        <time>2013-12-11T13:21:58Z</time>
      </trkpt>
      <trkpt lat="43.01545" lon="-0.07514">
        <ele>467.34</ele>
        <time>2013-12-11T13:22:05Z</time>
      </trkpt>
      <trkpt lat="43.01557" lon="-0.07482">
        <ele>465.9</ele>
        <time>2013-12-11T13:22:10Z</time>
      </trkpt>
      <trkpt lat="43.01578" lon="-0.07471">
        <ele>463.97</ele>
        <time>2013-12-11T13:22:15Z</time>
      </trkpt>
      <trkpt lat="43.01625" lon="-0.07477">
        <ele>462.05</ele>
        <time>2013-12-11T13:22:23Z</time>
      </trkpt>
      <trkpt lat="43.0163" lon="-0.07473">
        <ele>462.53</ele>
        <time>2013-12-11T13:22:24Z</time>
      </trkpt>
      <trkpt lat="43.01653" lon="-0.07453">
        <ele>461.57</ele>
        <time>2013-12-11T13:22:29Z</time>
      </trkpt>
      <trkpt lat="43.01686" lon="-0.07443">
        <ele>461.57</ele>
        <time>2013-12-11T13:22:40Z</time>
      </trkpt>
      <trkpt lat="43.01711" lon="-0.07437">
        <ele>464.93</ele>
        <time>2013-12-11T13:22:51Z</time>
      </trkpt>
      <trkpt lat="43.01728" lon="-0.07436">
        <ele>467.34</ele>
        <time>2013-12-11T13:23:00Z</time>
      </trkpt>
      <trkpt lat="43.01737" lon="-0.07435">
        <ele>468.3</ele>
        <time>2013-12-11T13:23:12Z</time>
      </trkpt>
      <trkpt lat="43.01739" lon="-0.07434">
        <ele>468.3</ele>
        <time>2013-12-11T13:23:36Z</time>
      </trkpt>
      <trkpt lat="43.01741" lon="-0.07432">
        <ele>468.78</ele>
        <time>2013-12-11T13:23:41Z</time>
      </trkpt>
      <trkpt lat="43.01751" lon="-0.07431">
        <ele>470.22</ele>
        <time>2013-12-11T13:23:47Z</time>
      </trkpt>
      <trkpt lat="43.01759" lon="-0.0743">
        <ele>471.18</ele>
        <time>2013-12-11T13:23:52Z</time>
      </trkpt>
      <trkpt lat="43.0177" lon="-0.07428">
        <ele>472.14</ele>
        <time>2013-12-11T13:23:58Z</time>
      </trkpt>
      <trkpt lat="43.01787" lon="-0.07424">
        <ele>474.07</ele>
        <time>2013-12-11T13:24:06Z</time>
      </trkpt>
      <trkpt lat="43.01814" lon="-0.07413">
        <ele>476.95</ele>
        <time>2013-12-11T13:24:18Z</time>
      </trkpt>
      <trkpt lat="43.01822" lon="-0.07409">
        <ele>477.43</ele>
        <time>2013-12-11T13:24:22Z</time>
      </trkpt>
      <trkpt lat="43.0183" lon="-0.07406">
        <ele>478.39</ele>
        <time>2013-12-11T13:24:26Z</time>
      </trkpt>
      <trkpt lat="43.01857" lon="-0.07399">
        <ele>479.84</ele>
        <time>2013-12-11T13:24:37Z</time>
      </trkpt>
      <trkpt lat="43.01871" lon="-0.07403">
        <ele>480.32</ele>
        <time>2013-12-11T13:24:42Z</time>
      </trkpt>
      <trkpt lat="43.01885" lon="-0.07413">
        <ele>482.24</ele>
        <time>2013-12-11T13:24:48Z</time>
      </trkpt>
      <trkpt lat="43.01893" lon="-0.07424">
        <ele>484.16</ele>
        <time>2013-12-11T13:24:52Z</time>
      </trkpt>
      <trkpt lat="43.01898" lon="-0.07432">
        <ele>485.6</ele>
        <time>2013-12-11T13:24:55Z</time>
      </trkpt>
      <trkpt lat="43.01919" lon="-0.07463">
        <ele>488.97</ele>
        <time>2013-12-11T13:25:08Z</time>
      </trkpt>
      <trkpt lat="43.01936" lon="-0.07487">
        <ele>492.33</ele>
        <time>2013-12-11T13:25:20Z</time>
      </trkpt>
      <trkpt lat="43.0196" lon="-0.07507">
        <ele>495.22</ele>
        <time>2013-12-11T13:25:33Z</time>
      </trkpt>
      <trkpt lat="43.01977" lon="-0.07527">
        <ele>498.58</ele>
        <time>2013-12-11T13:25:44Z</time>
      </trkpt>
      <trkpt lat="43.01988" lon="-0.07532">
        <ele>500.02</ele>
        <time>2013-12-11T13:25:51Z</time>
      </trkpt>
      <trkpt lat="43.01995" lon="-0.07535">
        <ele>501.46</ele>
        <time>2013-12-11T13:25:59Z</time>
      </trkpt>
      <trkpt lat="43.01999" lon="-0.07536">
        <ele>501.95</ele>
        <time>2013-12-11T13:26:04Z</time>
      </trkpt>
      <trkpt lat="43.01995" lon="-0.07537">
        <ele>501.46</ele>
        <time>2013-12-11T13:26:16Z</time>
      </trkpt>
      <trkpt lat="43.01996" lon="-0.07538">
        <ele>501.95</ele>
        <time>2013-12-11T13:26:41Z</time>
      </trkpt>
      <trkpt lat="43.01996" lon="-0.0754">
        <ele>501.46</ele>
        <time>2013-12-11T13:27:10Z</time>
      </trkpt>
      <trkpt lat="43.01995" lon="-0.0754">
        <ele>501.95</ele>
        <time>2013-12-11T13:27:38Z</time>
      </trkpt>
      <trkpt lat="43.01994" lon="-0.0754">
        <ele>501.95</ele>
        <time>2013-12-11T13:28:06Z</time>
      </trkpt>
      <trkpt lat="43.01995" lon="-0.0754">
        <ele>501.95</ele>
        <time>2013-12-11T13:28:39Z</time>
      </trkpt>
      <trkpt lat="43.01994" lon="-0.0754">
        <ele>501.46</ele>
        <time>2013-12-11T13:28:47Z</time>
      </trkpt>
      <trkpt lat="43.01975" lon="-0.07529">
        <ele>498.1</ele>
        <time>2013-12-11T13:28:53Z</time>
      </trkpt>
      <trkpt lat="43.01951" lon="-0.07502">
        <ele>493.77</ele>
        <time>2013-12-11T13:28:57Z</time>
      </trkpt>
      <trkpt lat="43.01939" lon="-0.07491">
        <ele>492.33</ele>
        <time>2013-12-11T13:28:59Z</time>
      </trkpt>
      <trkpt lat="43.01931" lon="-0.0748">
        <ele>490.89</ele>
        <time>2013-12-11T13:29:02Z</time>
      </trkpt>
      <trkpt lat="43.0193" lon="-0.07479">
        <ele>489.93</ele>
        <time>2013-12-11T13:29:10Z</time>
      </trkpt>
      <trkpt lat="43.01933" lon="-0.07481">
        <ele>489.93</ele>
        <time>2013-12-11T13:29:38Z</time>
      </trkpt>
      <trkpt lat="43.01931" lon="-0.07478">
        <ele>489.93</ele>
        <time>2013-12-11T13:30:16Z</time>
      </trkpt>
      <trkpt lat="43.0193" lon="-0.07477">
        <ele>489.93</ele>
        <time>2013-12-11T13:30:45Z</time>
      </trkpt>
      <trkpt lat="43.0193" lon="-0.07479">
        <ele>489.93</ele>
        <time>2013-12-11T13:31:17Z</time>
      </trkpt>
      <trkpt lat="43.01928" lon="-0.07478">
        <ele>489.93</ele>
        <time>2013-12-11T13:31:47Z</time>
      </trkpt>
      <trkpt lat="43.01929" lon="-0.07478">
        <ele>490.41</ele>
        <time>2013-12-11T13:31:53Z</time>
      </trkpt>
      <trkpt lat="43.01931" lon="-0.0748">
        <ele>491.37</ele>
        <time>2013-12-11T13:32:02Z</time>
      </trkpt>
      <trkpt lat="43.01932" lon="-0.07481">
        <ele>492.33</ele>
        <time>2013-12-11T13:32:12Z</time>
      </trkpt>
      <trkpt lat="43.01938" lon="-0.07487">
        <ele>492.81</ele>
        <time>2013-12-11T13:32:16Z</time>
      </trkpt>
      <trkpt lat="43.01946" lon="-0.07494">
        <ele>493.77</ele>
        <time>2013-12-11T13:32:21Z</time>
      </trkpt>
      <trkpt lat="43.01967" lon="-0.07516">
        <ele>497.14</ele>
        <time>2013-12-11T13:32:32Z</time>
      </trkpt>
      <trkpt lat="43.01985" lon="-0.07529">
        <ele>500.5</ele>
        <time>2013-12-11T13:32:42Z</time>
      </trkpt>
      <trkpt lat="43.01988" lon="-0.0753">
        <ele>500.98</ele>
        <time>2013-12-11T13:32:44Z</time>
      </trkpt>
      <trkpt lat="43.0199" lon="-0.07534">
        <ele>501.46</ele>
        <time>2013-12-11T13:32:59Z</time>
      </trkpt>
      <trkpt lat="43.01991" lon="-0.07535">
        <ele>501.95</ele>
        <time>2013-12-11T13:33:25Z</time>
      </trkpt>
      <trkpt lat="43.01991" lon="-0.07537">
        <ele>501.46</ele>
        <time>2013-12-11T13:33:45Z</time>
      </trkpt>
      <trkpt lat="43.0199" lon="-0.07539">
        <ele>501.46</ele>
        <time>2013-12-11T13:34:01Z</time>
      </trkpt>
      <trkpt lat="43.0199" lon="-0.07539">
        <ele>501.46</ele>
        <time>2013-12-11T13:34:04Z</time>
      </trkpt>
      <trkpt lat="43.01982" lon="-0.07537">
        <ele>500.5</ele>
        <time>2013-12-11T13:34:10Z</time>
      </trkpt>
      <trkpt lat="43.01978" lon="-0.07536">
        <ele>500.98</ele>
        <time>2013-12-11T13:34:19Z</time>
      </trkpt>
      <trkpt lat="43.01977" lon="-0.07536">
        <ele>500.98</ele>
        <time>2013-12-11T13:34:20Z</time>
      </trkpt>
      <trkpt lat="43.01973" lon="-0.07534">
        <ele>501.46</ele>
        <time>2013-12-11T13:34:36Z</time>
      </trkpt>
      <trkpt lat="43.0197" lon="-0.07532">
        <ele>501.46</ele>
        <time>2013-12-11T13:34:41Z</time>
      </trkpt>
      <trkpt lat="43.01953" lon="-0.07516">
        <ele>502.91</ele>
        <time>2013-12-11T13:34:53Z</time>
      </trkpt>
      <trkpt lat="43.01929" lon="-0.07497">
        <ele>503.87</ele>
        <time>2013-12-11T13:35:06Z</time>
      </trkpt>
      <trkpt lat="43.01922" lon="-0.07492">
        <ele>504.83</ele>
        <time>2013-12-11T13:35:12Z</time>
      </trkpt>
      <trkpt lat="43.01916" lon="-0.07489">
        <ele>505.31</ele>
        <time>2013-12-11T13:35:18Z</time>
      </trkpt>
      <trkpt lat="43.01914" lon="-0.07486">
        <ele>506.27</ele>
        <time>2013-12-11T13:35:31Z</time>
      </trkpt>
      <trkpt lat="43.01912" lon="-0.07483">
        <ele>506.27</ele>
        <time>2013-12-11T13:35:43Z</time>
      </trkpt>
      <trkpt lat="43.0191" lon="-0.07481">
        <ele>506.75</ele>
        <time>2013-12-11T13:36:00Z</time>
      </trkpt>
      <trkpt lat="43.01905" lon="-0.07475">
        <ele>507.23</ele>
        <time>2013-12-11T13:36:04Z</time>
      </trkpt>
      <trkpt lat="43.01899" lon="-0.07468">
        <ele>509.16</ele>
        <time>2013-12-11T13:36:10Z</time>
      </trkpt>
      <trkpt lat="43.01897" lon="-0.07467">
        <ele>509.64</ele>
        <time>2013-12-11T13:36:13Z</time>
      </trkpt>
      <trkpt lat="43.01884" lon="-0.07459">
        <ele>510.6</ele>
        <time>2013-12-11T13:36:22Z</time>
      </trkpt>
      <trkpt lat="43.01876" lon="-0.07456">
        <ele>510.6</ele>
        <time>2013-12-11T13:36:26Z</time>
      </trkpt>
      <trkpt lat="43.01845" lon="-0.07474">
        <ele>511.08</ele>
        <time>2013-12-11T13:36:38Z</time>
      </trkpt>
      <trkpt lat="43.01837" lon="-0.07476">
        <ele>511.56</ele>
        <time>2013-12-11T13:36:42Z</time>
      </trkpt>
      <trkpt lat="43.0183" lon="-0.07476">
        <ele>512.04</ele>
        <time>2013-12-11T13:36:46Z</time>
      </trkpt>
      <trkpt lat="43.01815" lon="-0.07484">
        <ele>514.92</ele>
        <time>2013-12-11T13:36:58Z</time>
      </trkpt>
      <trkpt lat="43.01812" lon="-0.07487">
        <ele>514.44</ele>
        <time>2013-12-11T13:37:00Z</time>
      </trkpt>
      <trkpt lat="43.01809" lon="-0.0749">
        <ele>514.92</ele>
        <time>2013-12-11T13:37:02Z</time>
      </trkpt>
      <trkpt lat="43.01801" lon="-0.07498">
        <ele>515.4</ele>
        <time>2013-12-11T13:37:08Z</time>
      </trkpt>
      <trkpt lat="43.01792" lon="-0.07498">
        <ele>515.88</ele>
        <time>2013-12-11T13:37:21Z</time>
      </trkpt>
      <trkpt lat="43.01786" lon="-0.07499">
        <ele>517.81</ele>
        <time>2013-12-11T13:37:33Z</time>
      </trkpt>
      <trkpt lat="43.01776" lon="-0.07504">
        <ele>518.29</ele>
        <time>2013-12-11T13:37:43Z</time>
      </trkpt>
      <trkpt lat="43.01751" lon="-0.07516">
        <ele>517.81</ele>
        <time>2013-12-11T13:37:54Z</time>
      </trkpt>
      <trkpt lat="43.01745" lon="-0.0752">
        <ele>517.81</ele>
        <time>2013-12-11T13:37:57Z</time>
      </trkpt>
      <trkpt lat="43.01725" lon="-0.07539">
        <ele>515.88</ele>
        <time>2013-12-11T13:38:05Z</time>
      </trkpt>
      <trkpt lat="43.017" lon="-0.0756">
        <ele>515.4</ele>
        <time>2013-12-11T13:38:15Z</time>
      </trkpt>
      <trkpt lat="43.01692" lon="-0.07564">
        <ele>515.88</ele>
        <time>2013-12-11T13:38:18Z</time>
      </trkpt>
      <trkpt lat="43.01679" lon="-0.07595">
        <ele>515.4</ele>
        <time>2013-12-11T13:38:28Z</time>
      </trkpt>
      <trkpt lat="43.01659" lon="-0.07622">
        <ele>514.92</ele>
        <time>2013-12-11T13:38:39Z</time>
      </trkpt>
      <trkpt lat="43.01654" lon="-0.07633">
        <ele>515.4</ele>
        <time>2013-12-11T13:38:44Z</time>
      </trkpt>
      <trkpt lat="43.01625" lon="-0.0765">
        <ele>515.4</ele>
        <time>2013-12-11T13:38:57Z</time>
      </trkpt>
      <trkpt lat="43.01603" lon="-0.07665">
        <ele>513</ele>
        <time>2013-12-11T13:39:05Z</time>
      </trkpt>
      <trkpt lat="43.01592" lon="-0.07691">
        <ele>510.12</ele>
        <time>2013-12-11T13:39:11Z</time>
      </trkpt>
      <trkpt lat="43.0159" lon="-0.07697">
        <ele>509.64</ele>
        <time>2013-12-11T13:39:12Z</time>
      </trkpt>
      <trkpt lat="43.01585" lon="-0.07705">
        <ele>508.67</ele>
        <time>2013-12-11T13:39:14Z</time>
      </trkpt>
      <trkpt lat="43.01562" lon="-0.0771">
        <ele>504.83</ele>
        <time>2013-12-11T13:39:19Z</time>
      </trkpt>
      <trkpt lat="43.01542" lon="-0.07706">
        <ele>501.46</ele>
        <time>2013-12-11T13:39:23Z</time>
      </trkpt>
      <trkpt lat="43.01518" lon="-0.077">
        <ele>498.58</ele>
        <time>2013-12-11T13:39:27Z</time>
      </trkpt>
      <trkpt lat="43.01514" lon="-0.07697">
        <ele>498.1</ele>
        <time>2013-12-11T13:39:28Z</time>
      </trkpt>
      <trkpt lat="43.01502" lon="-0.07687">
        <ele>495.22</ele>
        <time>2013-12-11T13:39:31Z</time>
      </trkpt>
      <trkpt lat="43.0149" lon="-0.07693">
        <ele>492.81</ele>
        <time>2013-12-11T13:39:35Z</time>
      </trkpt>
      <trkpt lat="43.01488" lon="-0.07696">
        <ele>492.81</ele>
        <time>2013-12-11T13:39:36Z</time>
      </trkpt>
      <trkpt lat="43.01481" lon="-0.0771">
        <ele>491.37</ele>
        <time>2013-12-11T13:39:39Z</time>
      </trkpt>
      <trkpt lat="43.01478" lon="-0.07714">
        <ele>491.37</ele>
        <time>2013-12-11T13:39:40Z</time>
      </trkpt>
      <trkpt lat="43.01464" lon="-0.07752">
        <ele>487.05</ele>
        <time>2013-12-11T13:39:45Z</time>
      </trkpt>
      <trkpt lat="43.01439" lon="-0.07798">
        <ele>481.76</ele>
        <time>2013-12-11T13:39:50Z</time>
      </trkpt>
      <trkpt lat="43.01431" lon="-0.07805">
        <ele>481.76</ele>
        <time>2013-12-11T13:39:51Z</time>
      </trkpt>
      <trkpt lat="43.01416" lon="-0.07818">
        <ele>481.76</ele>
        <time>2013-12-11T13:39:53Z</time>
      </trkpt>
      <trkpt lat="43.01392" lon="-0.07853">
        <ele>483.2</ele>
        <time>2013-12-11T13:39:58Z</time>
      </trkpt>
      <trkpt lat="43.01376" lon="-0.07868">
        <ele>483.68</ele>
        <time>2013-12-11T13:40:01Z</time>
      </trkpt>
      <trkpt lat="43.01359" lon="-0.07884">
        <ele>484.16</ele>
        <time>2013-12-11T13:40:04Z</time>
      </trkpt>
      <trkpt lat="43.01346" lon="-0.07894">
        <ele>488.49</ele>
        <time>2013-12-11T13:40:08Z</time>
      </trkpt>
      <trkpt lat="43.01334" lon="-0.07895">
        <ele>490.89</ele>
        <time>2013-12-11T13:40:13Z</time>
      </trkpt>
      <trkpt lat="43.0133" lon="-0.07895">
        <ele>491.85</ele>
        <time>2013-12-11T13:40:15Z</time>
      </trkpt>
      <trkpt lat="43.01328" lon="-0.07896">
        <ele>492.81</ele>
        <time>2013-12-11T13:40:16Z</time>
      </trkpt>
      <trkpt lat="43.01322" lon="-0.07907">
        <ele>494.74</ele>
        <time>2013-12-11T13:40:21Z</time>
      </trkpt>
      <trkpt lat="43.01315" lon="-0.0792">
        <ele>496.18</ele>
        <time>2013-12-11T13:40:27Z</time>
      </trkpt>
      <trkpt lat="43.01316" lon="-0.07931">
        <ele>497.14</ele>
        <time>2013-12-11T13:40:31Z</time>
      </trkpt>
      <trkpt lat="43.01328" lon="-0.07959">
        <ele>499.54</ele>
        <time>2013-12-11T13:40:43Z</time>
      </trkpt>
      <trkpt lat="43.01329" lon="-0.07971">
        <ele>500.02</ele>
        <time>2013-12-11T13:40:47Z</time>
      </trkpt>
      <trkpt lat="43.01316" lon="-0.08006">
        <ele>502.91</ele>
        <time>2013-12-11T13:41:02Z</time>
      </trkpt>
      <trkpt lat="43.01312" lon="-0.08022">
        <ele>503.39</ele>
        <time>2013-12-11T13:41:09Z</time>
      </trkpt>
      <trkpt lat="43.01313" lon="-0.08042">
        <ele>503.87</ele>
        <time>2013-12-11T13:41:22Z</time>
      </trkpt>
      <trkpt lat="43.01312" lon="-0.08042">
        <ele>504.35</ele>
        <time>2013-12-11T13:41:45Z</time>
      </trkpt>
      <trkpt lat="43.01315" lon="-0.08046">
        <ele>504.35</ele>
        <time>2013-12-11T13:42:18Z</time>
      </trkpt>
      <trkpt lat="43.01316" lon="-0.08046">
        <ele>503.39</ele>
        <time>2013-12-11T13:42:39Z</time>
      </trkpt>
      <trkpt lat="43.01315" lon="-0.08044">
        <ele>504.83</ele>
        <time>2013-12-11T13:43:12Z</time>
      </trkpt>
      <trkpt lat="43.01315" lon="-0.08044">
        <ele>504.83</ele>
        <time>2013-12-11T13:43:28Z</time>
      </trkpt>
      <trkpt lat="43.01315" lon="-0.08043">
        <ele>504.83</ele>
        <time>2013-12-11T13:43:57Z</time>
      </trkpt>
      <trkpt lat="43.01315" lon="-0.08044">
        <ele>503.87</ele>
        <time>2013-12-11T13:44:11Z</time>
      </trkpt>
      <trkpt lat="43.01315" lon="-0.08044">
        <ele>503.87</ele>
        <time>2013-12-11T13:44:43Z</time>
      </trkpt>
      <trkpt lat="43.01315" lon="-0.08044">
        <ele>505.31</ele>
        <time>2013-12-11T13:44:55Z</time>
      </trkpt>
      <trkpt lat="43.01314" lon="-0.08043">
        <ele>504.83</ele>
        <time>2013-12-11T13:45:26Z</time>
      </trkpt>
      <trkpt lat="43.01314" lon="-0.08044">
        <ele>504.83</ele>
        <time>2013-12-11T13:45:48Z</time>
      </trkpt>
      <trkpt lat="43.01313" lon="-0.08049">
        <ele>503.87</ele>
        <time>2013-12-11T13:46:01Z</time>
      </trkpt>
      <trkpt lat="43.0131" lon="-0.0807">
        <ele>500.02</ele>
        <time>2013-12-11T13:46:06Z</time>
      </trkpt>
      <trkpt lat="43.01306" lon="-0.08096">
        <ele>497.14</ele>
        <time>2013-12-11T13:46:11Z</time>
      </trkpt>
      <trkpt lat="43.01306" lon="-0.08107">
        <ele>496.18</ele>
        <time>2013-12-11T13:46:13Z</time>
      </trkpt>
      <trkpt lat="43.01308" lon="-0.08146">
        <ele>492.81</ele>
        <time>2013-12-11T13:46:20Z</time>
      </trkpt>
      <trkpt lat="43.01308" lon="-0.08152">
        <ele>490.89</ele>
        <time>2013-12-11T13:46:21Z</time>
      </trkpt>
      <trkpt lat="43.01313" lon="-0.08175">
        <ele>487.53</ele>
        <time>2013-12-11T13:46:25Z</time>
      </trkpt>
      <trkpt lat="43.01323" lon="-0.08198">
        <ele>483.2</ele>
        <time>2013-12-11T13:46:29Z</time>
      </trkpt>
      <trkpt lat="43.01331" lon="-0.0821">
        <ele>480.8</ele>
        <time>2013-12-11T13:46:31Z</time>
      </trkpt>
      <trkpt lat="43.01337" lon="-0.08224">
        <ele>477.91</ele>
        <time>2013-12-11T13:46:33Z</time>
      </trkpt>
      <trkpt lat="43.0135" lon="-0.0825">
        <ele>475.99</ele>
        <time>2013-12-11T13:46:37Z</time>
      </trkpt>
      <trkpt lat="43.0136" lon="-0.08272">
        <ele>472.63</ele>
        <time>2013-12-11T13:46:41Z</time>
      </trkpt>
      <trkpt lat="43.01364" lon="-0.08276">
        <ele>471.66</ele>
        <time>2013-12-11T13:46:42Z</time>
      </trkpt>
      <trkpt lat="43.01376" lon="-0.08288">
        <ele>468.78</ele>
        <time>2013-12-11T13:46:45Z</time>
      </trkpt>
      <trkpt lat="43.01386" lon="-0.08294">
        <ele>466.38</ele>
        <time>2013-12-11T13:46:47Z</time>
      </trkpt>
      <trkpt lat="43.01414" lon="-0.08326">
        <ele>461.09</ele>
        <time>2013-12-11T13:46:52Z</time>
      </trkpt>
      <trkpt lat="43.01435" lon="-0.08351">
        <ele>458.21</ele>
        <time>2013-12-11T13:46:56Z</time>
      </trkpt>
      <trkpt lat="43.01445" lon="-0.08361">
        <ele>456.28</ele>
        <time>2013-12-11T13:46:58Z</time>
      </trkpt>
      <trkpt lat="43.01477" lon="-0.08381">
        <ele>452.44</ele>
        <time>2013-12-11T13:47:03Z</time>
      </trkpt>
      <trkpt lat="43.01507" lon="-0.08392">
        <ele>450.52</ele>
        <time>2013-12-11T13:47:07Z</time>
      </trkpt>
      <trkpt lat="43.01523" lon="-0.0839">
        <ele>451</ele>
        <time>2013-12-11T13:47:15Z</time>
      </trkpt>
      <trkpt lat="43.01524" lon="-0.08389">
        <ele>451.48</ele>
        <time>2013-12-11T13:47:43Z</time>
      </trkpt>
      <trkpt lat="43.01524" lon="-0.0839">
        <ele>451.48</ele>
        <time>2013-12-11T13:47:58Z</time>
      </trkpt>
      <trkpt lat="43.01525" lon="-0.08395">
        <ele>450.03</ele>
        <time>2013-12-11T13:48:01Z</time>
      </trkpt>
      <trkpt lat="43.01527" lon="-0.08396">
        <ele>449.55</ele>
        <time>2013-12-11T13:48:14Z</time>
      </trkpt>
      <trkpt lat="43.01527" lon="-0.08401">
        <ele>449.55</ele>
        <time>2013-12-11T13:48:31Z</time>
      </trkpt>
      <trkpt lat="43.01527" lon="-0.08403">
        <ele>450.03</ele>
        <time>2013-12-11T13:48:59Z</time>
      </trkpt>
      <trkpt lat="43.01527" lon="-0.08403">
        <ele>449.55</ele>
        <time>2013-12-11T13:49:00Z</time>
      </trkpt>
      <trkpt lat="43.01544" lon="-0.08402">
        <ele>446.19</ele>
        <time>2013-12-11T13:49:07Z</time>
      </trkpt>
      <trkpt lat="43.01548" lon="-0.08402">
        <ele>445.71</ele>
        <time>2013-12-11T13:49:08Z</time>
      </trkpt>
      <trkpt lat="43.01564" lon="-0.08399">
        <ele>442.34</ele>
        <time>2013-12-11T13:49:12Z</time>
      </trkpt>
      <trkpt lat="43.01601" lon="-0.084">
        <ele>439.46</ele>
        <time>2013-12-11T13:49:20Z</time>
      </trkpt>
      <trkpt lat="43.01614" lon="-0.084">
        <ele>438.98</ele>
        <time>2013-12-11T13:49:23Z</time>
      </trkpt>
      <trkpt lat="43.0163" lon="-0.08391">
        <ele>435.61</ele>
        <time>2013-12-11T13:49:27Z</time>
      </trkpt>
      <trkpt lat="43.01641" lon="-0.08396">
        <ele>433.69</ele>
        <time>2013-12-11T13:49:30Z</time>
      </trkpt>
      <trkpt lat="43.01646" lon="-0.08401">
        <ele>431.29</ele>
        <time>2013-12-11T13:49:32Z</time>
      </trkpt>
      <trkpt lat="43.01664" lon="-0.08419">
        <ele>426.48</ele>
        <time>2013-12-11T13:49:38Z</time>
      </trkpt>
      <trkpt lat="43.0167" lon="-0.08425">
        <ele>425.52</ele>
        <time>2013-12-11T13:49:40Z</time>
      </trkpt>
      <trkpt lat="43.0167" lon="-0.08428">
        <ele>421.19</ele>
        <time>2013-12-11T13:49:44Z</time>
      </trkpt>
      <trkpt lat="43.01665" lon="-0.0843">
        <ele>418.79</ele>
        <time>2013-12-11T13:49:46Z</time>
      </trkpt>
      <trkpt lat="43.01663" lon="-0.08445">
        <ele>415.43</ele>
        <time>2013-12-11T13:49:51Z</time>
      </trkpt>
      <trkpt lat="43.01671" lon="-0.08448">
        <ele>414.47</ele>
        <time>2013-12-11T13:49:53Z</time>
      </trkpt>
      <trkpt lat="43.01675" lon="-0.08448">
        <ele>414.47</ele>
        <time>2013-12-11T13:49:54Z</time>
      </trkpt>
      <trkpt lat="43.01682" lon="-0.0845">
        <ele>416.39</ele>
        <time>2013-12-11T13:49:57Z</time>
      </trkpt>
      <trkpt lat="43.01695" lon="-0.08459">
        <ele>416.87</ele>
        <time>2013-12-11T13:50:11Z</time>
      </trkpt>
      <trkpt lat="43.01697" lon="-0.08459">
        <ele>416.39</ele>
        <time>2013-12-11T13:50:22Z</time>
      </trkpt>
      <trkpt lat="43.01714" lon="-0.08456">
        <ele>417.83</ele>
        <time>2013-12-11T13:50:28Z</time>
      </trkpt>
      <trkpt lat="43.01737" lon="-0.08447">
        <ele>420.23</ele>
        <time>2013-12-11T13:50:37Z</time>
      </trkpt>
      <trkpt lat="43.01739" lon="-0.08445">
        <ele>420.23</ele>
        <time>2013-12-11T13:50:38Z</time>
      </trkpt>
      <trkpt lat="43.01757" lon="-0.08435">
        <ele>420.71</ele>
        <time>2013-12-11T13:50:50Z</time>
      </trkpt>
      <trkpt lat="43.01774" lon="-0.08414">
        <ele>418.31</ele>
        <time>2013-12-11T13:50:58Z</time>
      </trkpt>
      <trkpt lat="43.0178" lon="-0.0841">
        <ele>418.31</ele>
        <time>2013-12-11T13:51:07Z</time>
      </trkpt>
      <trkpt lat="43.01783" lon="-0.0841">
        <ele>418.79</ele>
        <time>2013-12-11T13:51:22Z</time>
      </trkpt>
      <trkpt lat="43.01787" lon="-0.08411">
        <ele>418.31</ele>
        <time>2013-12-11T13:51:41Z</time>
      </trkpt>
      <trkpt lat="43.01789" lon="-0.0841">
        <ele>418.31</ele>
        <time>2013-12-11T13:52:04Z</time>
      </trkpt>
      <trkpt lat="43.0179" lon="-0.08409">
        <ele>417.83</ele>
        <time>2013-12-11T13:52:15Z</time>
      </trkpt>
      <trkpt lat="43.01809" lon="-0.08391">
        <ele>413.02</ele>
        <time>2013-12-11T13:52:21Z</time>
      </trkpt>
      <trkpt lat="43.01813" lon="-0.08388">
        <ele>412.54</ele>
        <time>2013-12-11T13:52:22Z</time>
      </trkpt>
      <trkpt lat="43.01839" lon="-0.0838">
        <ele>416.39</ele>
        <time>2013-12-11T13:52:28Z</time>
      </trkpt>
      <trkpt lat="43.01841" lon="-0.0838">
        <ele>416.87</ele>
        <time>2013-12-11T13:52:29Z</time>
      </trkpt>
      <trkpt lat="43.01856" lon="-0.08377">
        <ele>418.31</ele>
        <time>2013-12-11T13:52:35Z</time>
      </trkpt>
      <trkpt lat="43.01871" lon="-0.08371">
        <ele>417.35</ele>
        <time>2013-12-11T13:52:40Z</time>
      </trkpt>
      <trkpt lat="43.01904" lon="-0.08354">
        <ele>416.87</ele>
        <time>2013-12-11T13:52:50Z</time>
      </trkpt>
      <trkpt lat="43.01919" lon="-0.08352">
        <ele>415.43</ele>
        <time>2013-12-11T13:52:54Z</time>
      </trkpt>
      <trkpt lat="43.01932" lon="-0.08343">
        <ele>414.47</ele>
        <time>2013-12-11T13:52:57Z</time>
      </trkpt>
      <trkpt lat="43.01939" lon="-0.08334">
        <ele>413.98</ele>
        <time>2013-12-11T13:52:59Z</time>
      </trkpt>
      <trkpt lat="43.01956" lon="-0.08315">
        <ele>414.47</ele>
        <time>2013-12-11T13:53:04Z</time>
      </trkpt>
      <trkpt lat="43.01969" lon="-0.08313">
        <ele>415.91</ele>
        <time>2013-12-11T13:53:08Z</time>
      </trkpt>
      <trkpt lat="43.01987" lon="-0.08311">
        <ele>417.83</ele>
        <time>2013-12-11T13:53:16Z</time>
      </trkpt>
      <trkpt lat="43.01999" lon="-0.08306">
        <ele>417.83</ele>
        <time>2013-12-11T13:53:27Z</time>
      </trkpt>
      <trkpt lat="43.02001" lon="-0.08304">
        <ele>417.83</ele>
        <time>2013-12-11T13:53:55Z</time>
      </trkpt>
      <trkpt lat="43.02016" lon="-0.08292">
        <ele>415.91</ele>
        <time>2013-12-11T13:54:11Z</time>
      </trkpt>
      <trkpt lat="43.02022" lon="-0.08288">
        <ele>416.39</ele>
        <time>2013-12-11T13:54:13Z</time>
      </trkpt>
      <trkpt lat="43.02028" lon="-0.08279">
        <ele>416.39</ele>
        <time>2013-12-11T13:54:28Z</time>
      </trkpt>
      <trkpt lat="43.02029" lon="-0.08279">
        <ele>416.39</ele>
        <time>2013-12-11T13:54:34Z</time>
      </trkpt>
      <trkpt lat="43.02039" lon="-0.08264">
        <ele>412.54</ele>
        <time>2013-12-11T13:54:40Z</time>
      </trkpt>
      <trkpt lat="43.02053" lon="-0.08276">
        <ele>410.14</ele>
        <time>2013-12-11T13:54:43Z</time>
      </trkpt>
      <trkpt lat="43.0206" lon="-0.08289">
        <ele>408.7</ele>
        <time>2013-12-11T13:54:46Z</time>
      </trkpt>
      <trkpt lat="43.0207" lon="-0.08291">
        <ele>407.26</ele>
        <time>2013-12-11T13:54:57Z</time>
      </trkpt>
      <trkpt lat="43.0207" lon="-0.0829">
        <ele>407.26</ele>
        <time>2013-12-11T13:55:29Z</time>
      </trkpt>
      <trkpt lat="43.02071" lon="-0.08291">
        <ele>407.26</ele>
        <time>2013-12-11T13:56:00Z</time>
      </trkpt>
      <trkpt lat="43.02071" lon="-0.08291">
        <ele>407.26</ele>
        <time>2013-12-11T13:56:11Z</time>
      </trkpt>
      <trkpt lat="43.02075" lon="-0.08291">
        <ele>407.26</ele>
        <time>2013-12-11T13:56:15Z</time>
      </trkpt>
      <trkpt lat="43.02085" lon="-0.08267">
        <ele>408.7</ele>
        <time>2013-12-11T13:56:26Z</time>
      </trkpt>
      <trkpt lat="43.02085" lon="-0.08265">
        <ele>408.7</ele>
        <time>2013-12-11T13:56:27Z</time>
      </trkpt>
      <trkpt lat="43.02104" lon="-0.08253">
        <ele>407.74</ele>
        <time>2013-12-11T13:56:35Z</time>
      </trkpt>
      <trkpt lat="43.02112" lon="-0.0825">
        <ele>408.22</ele>
        <time>2013-12-11T13:56:46Z</time>
      </trkpt>
      <trkpt lat="43.02113" lon="-0.0825">
        <ele>408.7</ele>
        <time>2013-12-11T13:56:50Z</time>
      </trkpt>
      <trkpt lat="43.02119" lon="-0.08248">
        <ele>408.22</ele>
        <time>2013-12-11T13:56:53Z</time>
      </trkpt>
      <trkpt lat="43.02132" lon="-0.08247">
        <ele>409.66</ele>
        <time>2013-12-11T13:57:03Z</time>
      </trkpt>
      <trkpt lat="43.02137" lon="-0.08246">
        <ele>410.14</ele>
        <time>2013-12-11T13:57:06Z</time>
      </trkpt>
      <trkpt lat="43.0216" lon="-0.08237">
        <ele>409.18</ele>
        <time>2013-12-11T13:57:15Z</time>
      </trkpt>
      <trkpt lat="43.02164" lon="-0.08232">
        <ele>409.66</ele>
        <time>2013-12-11T13:57:18Z</time>
      </trkpt>
      <trkpt lat="43.02197" lon="-0.08214">
        <ele>409.66</ele>
        <time>2013-12-11T13:57:31Z</time>
      </trkpt>
      <trkpt lat="43.02213" lon="-0.08208">
        <ele>409.66</ele>
        <time>2013-12-11T13:57:35Z</time>
      </trkpt>
      <trkpt lat="43.02221" lon="-0.08235">
        <ele>410.62</ele>
        <time>2013-12-11T13:57:45Z</time>
      </trkpt>
      <trkpt lat="43.02224" lon="-0.08247">
        <ele>410.62</ele>
        <time>2013-12-11T13:57:49Z</time>
      </trkpt>
      <trkpt lat="43.02225" lon="-0.08252">
        <ele>410.14</ele>
        <time>2013-12-11T13:58:02Z</time>
      </trkpt>
      <trkpt lat="43.02223" lon="-0.08252">
        <ele>410.14</ele>
        <time>2013-12-11T13:58:26Z</time>
      </trkpt>
      <trkpt lat="43.02223" lon="-0.08249">
        <ele>410.14</ele>
        <time>2013-12-11T13:58:49Z</time>
      </trkpt>
      <trkpt lat="43.02222" lon="-0.08249">
        <ele>410.14</ele>
        <time>2013-12-11T13:59:14Z</time>
      </trkpt>
      <trkpt lat="43.02222" lon="-0.0825">
        <ele>410.14</ele>
        <time>2013-12-11T13:59:36Z</time>
      </trkpt>
      <trkpt lat="43.0222" lon="-0.08252">
        <ele>409.66</ele>
        <time>2013-12-11T14:00:04Z</time>
      </trkpt>
      <trkpt lat="43.02221" lon="-0.08252">
        <ele>409.66</ele>
        <time>2013-12-11T14:00:29Z</time>
      </trkpt>
      <trkpt lat="43.02224" lon="-0.08254">
        <ele>409.66</ele>
        <time>2013-12-11T14:00:56Z</time>
      </trkpt>
      <trkpt lat="43.02226" lon="-0.08255">
        <ele>409.66</ele>
        <time>2013-12-11T14:01:26Z</time>
      </trkpt>
      <trkpt lat="43.02225" lon="-0.08256">
        <ele>409.66</ele>
        <time>2013-12-11T14:01:53Z</time>
      </trkpt>
      <trkpt lat="43.02224" lon="-0.08254">
        <ele>409.66</ele>
        <time>2013-12-11T14:02:17Z</time>
      </trkpt>
      <trkpt lat="43.02224" lon="-0.08255">
        <ele>409.66</ele>
        <time>2013-12-11T14:02:31Z</time>
      </trkpt>
      <trkpt lat="43.02225" lon="-0.08256">
        <ele>408.7</ele>
        <time>2013-12-11T14:02:34Z</time>
      </trkpt>
      <trkpt lat="43.02225" lon="-0.08262">
        <ele>409.66</ele>
        <time>2013-12-11T14:02:43Z</time>
      </trkpt>
      <trkpt lat="43.02225" lon="-0.08262">
        <ele>409.18</ele>
        <time>2013-12-11T14:03:06Z</time>
      </trkpt>
      <trkpt lat="43.02225" lon="-0.08264">
        <ele>409.66</ele>
        <time>2013-12-11T14:03:20Z</time>
      </trkpt>
      <trkpt lat="43.02225" lon="-0.08272">
        <ele>409.66</ele>
        <time>2013-12-11T14:03:25Z</time>
      </trkpt>
      <trkpt lat="43.02225" lon="-0.08286">
        <ele>409.18</ele>
        <time>2013-12-11T14:03:29Z</time>
      </trkpt>
      <trkpt lat="43.02226" lon="-0.08315">
        <ele>409.18</ele>
        <time>2013-12-11T14:03:38Z</time>
      </trkpt>
      <trkpt lat="43.02227" lon="-0.08318">
        <ele>409.66</ele>
        <time>2013-12-11T14:03:40Z</time>
      </trkpt>
      <trkpt lat="43.02235" lon="-0.08317">
        <ele>408.7</ele>
        <time>2013-12-11T14:03:45Z</time>
      </trkpt>
      <trkpt lat="43.02252" lon="-0.08311">
        <ele>406.77</ele>
        <time>2013-12-11T14:03:49Z</time>
      </trkpt>
      <trkpt lat="43.02264" lon="-0.08313">
        <ele>406.77</ele>
        <time>2013-12-11T14:03:52Z</time>
      </trkpt>
      <trkpt lat="43.02286" lon="-0.08324">
        <ele>405.81</ele>
        <time>2013-12-11T14:03:58Z</time>
      </trkpt>
      <trkpt lat="43.02324" lon="-0.08334">
        <ele>405.33</ele>
        <time>2013-12-11T14:04:09Z</time>
      </trkpt>
      <trkpt lat="43.02363" lon="-0.08349">
        <ele>404.85</ele>
        <time>2013-12-11T14:04:20Z</time>
      </trkpt>
      <trkpt lat="43.02391" lon="-0.0837">
        <ele>404.85</ele>
        <time>2013-12-11T14:04:29Z</time>
      </trkpt>
      <trkpt lat="43.02423" lon="-0.08359">
        <ele>404.85</ele>
        <time>2013-12-11T14:04:40Z</time>
      </trkpt>
      <trkpt lat="43.02433" lon="-0.08381">
        <ele>404.37</ele>
        <time>2013-12-11T14:04:48Z</time>
      </trkpt>
      <trkpt lat="43.02436" lon="-0.08396">
        <ele>404.85</ele>
        <time>2013-12-11T14:04:52Z</time>
      </trkpt>
      <trkpt lat="43.02431" lon="-0.08419">
        <ele>405.81</ele>
        <time>2013-12-11T14:04:59Z</time>
      </trkpt>
      <trkpt lat="43.0243" lon="-0.08422">
        <ele>405.33</ele>
        <time>2013-12-11T14:05:00Z</time>
      </trkpt>
      <trkpt lat="43.02408" lon="-0.08436">
        <ele>406.77</ele>
        <time>2013-12-11T14:05:11Z</time>
      </trkpt>
      <trkpt lat="43.02401" lon="-0.0845">
        <ele>406.77</ele>
        <time>2013-12-11T14:05:16Z</time>
      </trkpt>
      <trkpt lat="43.02392" lon="-0.08515">
        <ele>406.77</ele>
        <time>2013-12-11T14:05:34Z</time>
      </trkpt>
      <trkpt lat="43.02382" lon="-0.08575">
        <ele>407.74</ele>
        <time>2013-12-11T14:05:49Z</time>
      </trkpt>
      <trkpt lat="43.02374" lon="-0.0862">
        <ele>407.74</ele>
        <time>2013-12-11T14:06:01Z</time>
      </trkpt>
      <trkpt lat="43.02371" lon="-0.08668">
        <ele>408.7</ele>
        <time>2013-12-11T14:06:13Z</time>
      </trkpt>
      <trkpt lat="43.02391" lon="-0.08697">
        <ele>409.18</ele>
        <time>2013-12-11T14:06:24Z</time>
      </trkpt>
      <trkpt lat="43.02417" lon="-0.08725">
        <ele>408.7</ele>
        <time>2013-12-11T14:06:37Z</time>
      </trkpt>
      <trkpt lat="43.02446" lon="-0.08719">
        <ele>409.66</ele>
        <time>2013-12-11T14:06:48Z</time>
      </trkpt>
      <trkpt lat="43.02472" lon="-0.08749">
        <ele>410.62</ele>
        <time>2013-12-11T14:07:02Z</time>
      </trkpt>
      <trkpt lat="43.02492" lon="-0.08805">
        <ele>412.06</ele>
        <time>2013-12-11T14:07:19Z</time>
      </trkpt>
      <trkpt lat="43.0251" lon="-0.08864">
        <ele>413.02</ele>
        <time>2013-12-11T14:07:37Z</time>
      </trkpt>
      <trkpt lat="43.0254" lon="-0.08899">
        <ele>413.02</ele>
        <time>2013-12-11T14:07:51Z</time>
      </trkpt>
      <trkpt lat="43.02582" lon="-0.0893">
        <ele>413.98</ele>
        <time>2013-12-11T14:08:07Z</time>
      </trkpt>
      <trkpt lat="43.02606" lon="-0.08947">
        <ele>414.47</ele>
        <time>2013-12-11T14:08:21Z</time>
      </trkpt>
      <trkpt lat="43.02626" lon="-0.08971">
        <ele>414.47</ele>
        <time>2013-12-11T14:08:34Z</time>
      </trkpt>
      <trkpt lat="43.02641" lon="-0.09009">
        <ele>415.91</ele>
        <time>2013-12-11T14:08:48Z</time>
      </trkpt>
      <trkpt lat="43.02648" lon="-0.09029">
        <ele>416.39</ele>
        <time>2013-12-11T14:09:01Z</time>
      </trkpt>
      <trkpt lat="43.02657" lon="-0.09071">
        <ele>416.87</ele>
        <time>2013-12-11T14:09:15Z</time>
      </trkpt>
      <trkpt lat="43.02666" lon="-0.09115">
        <ele>417.83</ele>
        <time>2013-12-11T14:09:28Z</time>
      </trkpt>
      <trkpt lat="43.02679" lon="-0.09143">
        <ele>418.79</ele>
        <time>2013-12-11T14:09:37Z</time>
      </trkpt>
      <trkpt lat="43.02681" lon="-0.09142">
        <ele>418.31</ele>
        <time>2013-12-11T14:09:40Z</time>
      </trkpt>
      <trkpt lat="43.02686" lon="-0.09147">
        <ele>418.79</ele>
        <time>2013-12-11T14:09:47Z</time>
      </trkpt>
      <trkpt lat="43.02689" lon="-0.09151">
        <ele>418.79</ele>
        <time>2013-12-11T14:09:49Z</time>
      </trkpt>
      <trkpt lat="43.02713" lon="-0.09173">
        <ele>419.27</ele>
        <time>2013-12-11T14:10:01Z</time>
      </trkpt>
      <trkpt lat="43.02728" lon="-0.09189">
        <ele>419.75</ele>
        <time>2013-12-11T14:10:07Z</time>
      </trkpt>
      <trkpt lat="43.02737" lon="-0.09202">
        <ele>420.23</ele>
        <time>2013-12-11T14:10:10Z</time>
      </trkpt>
      <trkpt lat="43.02751" lon="-0.09243">
        <ele>421.19</ele>
        <time>2013-12-11T14:10:18Z</time>
      </trkpt>
      <trkpt lat="43.02739" lon="-0.09263">
        <ele>421.19</ele>
        <time>2013-12-11T14:10:26Z</time>
      </trkpt>
      <trkpt lat="43.02734" lon="-0.09269">
        <ele>421.19</ele>
        <time>2013-12-11T14:10:28Z</time>
      </trkpt>
      <trkpt lat="43.02704" lon="-0.093">
        <ele>421.19</ele>
        <time>2013-12-11T14:10:38Z</time>
      </trkpt>
      <trkpt lat="43.02688" lon="-0.09311">
        <ele>421.19</ele>
        <time>2013-12-11T14:10:42Z</time>
      </trkpt>
      <trkpt lat="43.02619" lon="-0.09361">
        <ele>420.71</ele>
        <time>2013-12-11T14:11:00Z</time>
      </trkpt>
      <trkpt lat="43.02542" lon="-0.09425">
        <ele>419.75</ele>
        <time>2013-12-11T14:11:19Z</time>
      </trkpt>
      <trkpt lat="43.02512" lon="-0.09457">
        <ele>419.27</ele>
        <time>2013-12-11T14:11:27Z</time>
      </trkpt>
      <trkpt lat="43.02496" lon="-0.09478">
        <ele>418.79</ele>
        <time>2013-12-11T14:11:32Z</time>
      </trkpt>
      <trkpt lat="43.02501" lon="-0.09491">
        <ele>418.79</ele>
        <time>2013-12-11T14:11:37Z</time>
      </trkpt>
      <trkpt lat="43.02495" lon="-0.09482">
        <ele>418.31</ele>
        <time>2013-12-11T14:11:41Z</time>
      </trkpt>
      <trkpt lat="43.02496" lon="-0.09481">
        <ele>418.79</ele>
        <time>2013-12-11T14:11:46Z</time>
      </trkpt>
      <trkpt lat="43.02494" lon="-0.09487">
        <ele>418.79</ele>
        <time>2013-12-11T14:11:49Z</time>
      </trkpt>
      <trkpt lat="43.02485" lon="-0.09496">
        <ele>418.31</ele>
        <time>2013-12-11T14:11:54Z</time>
      </trkpt>
      <trkpt lat="43.02459" lon="-0.09528">
        <ele>418.79</ele>
        <time>2013-12-11T14:12:05Z</time>
      </trkpt>
      <trkpt lat="43.0243" lon="-0.09568">
        <ele>418.31</ele>
        <time>2013-12-11T14:12:17Z</time>
      </trkpt>
      <trkpt lat="43.02399" lon="-0.09611">
        <ele>418.79</ele>
        <time>2013-12-11T14:12:31Z</time>
      </trkpt>
      <trkpt lat="43.02365" lon="-0.09646">
        <ele>420.23</ele>
        <time>2013-12-11T14:12:45Z</time>
      </trkpt>
      <trkpt lat="43.02322" lon="-0.09663">
        <ele>419.75</ele>
        <time>2013-12-11T14:12:58Z</time>
      </trkpt>
      <trkpt lat="43.02312" lon="-0.09667">
        <ele>419.27</ele>
        <time>2013-12-11T14:13:01Z</time>
      </trkpt>
      <trkpt lat="43.02304" lon="-0.09685">
        <ele>421.19</ele>
        <time>2013-12-11T14:13:07Z</time>
      </trkpt>
      <trkpt lat="43.02302" lon="-0.09702">
        <ele>423.12</ele>
        <time>2013-12-11T14:13:14Z</time>
      </trkpt>
      <trkpt lat="43.02301" lon="-0.09704">
        <ele>422.64</ele>
        <time>2013-12-11T14:13:15Z</time>
      </trkpt>
      <trkpt lat="43.02297" lon="-0.09708">
        <ele>423.12</ele>
        <time>2013-12-11T14:13:17Z</time>
      </trkpt>
      <trkpt lat="43.02291" lon="-0.09714">
        <ele>423.6</ele>
        <time>2013-12-11T14:13:25Z</time>
      </trkpt>
      <trkpt lat="43.02292" lon="-0.09715">
        <ele>428.89</ele>
        <time>2013-12-11T14:13:41Z</time>
      </trkpt>
      <trkpt lat="43.02292" lon="-0.09715">
        <ele>424.08</ele>
        <time>2013-12-11T14:13:42Z</time>
      </trkpt>
      <trkpt lat="43.02293" lon="-0.09716">
        <ele>428.89</ele>
        <time>2013-12-11T14:13:44Z</time>
      </trkpt>
      <trkpt lat="43.02293" lon="-0.09716">
        <ele>421.68</ele>
        <time>2013-12-11T14:13:45Z</time>
      </trkpt>
      <trkpt lat="43.02293" lon="-0.09716">
        <ele>425.04</ele>
        <time>2013-12-11T14:13:46Z</time>
      </trkpt>
      <trkpt lat="43.02293" lon="-0.09716">
        <ele>422.16</ele>
        <time>2013-12-11T14:13:50Z</time>
      </trkpt>
      <trkpt lat="43.02292" lon="-0.09715">
        <ele>423.6</ele>
        <time>2013-12-11T14:13:53Z</time>
      </trkpt>
      <trkpt lat="43.02289" lon="-0.09734">
        <ele>424.56</ele>
        <time>2013-12-11T14:14:00Z</time>
      </trkpt>
      <trkpt lat="43.02275" lon="-0.09781">
        <ele>426</ele>
        <time>2013-12-11T14:14:14Z</time>
      </trkpt>
      <trkpt lat="43.02268" lon="-0.09799">
        <ele>426.96</ele>
        <time>2013-12-11T14:14:21Z</time>
      </trkpt>
      <trkpt lat="43.02256" lon="-0.09833">
        <ele>430.33</ele>
        <time>2013-12-11T14:14:35Z</time>
      </trkpt>
      <trkpt lat="43.02255" lon="-0.09841">
        <ele>431.29</ele>
        <time>2013-12-11T14:14:38Z</time>
      </trkpt>
      <trkpt lat="43.02268" lon="-0.0985">
        <ele>433.69</ele>
        <time>2013-12-11T14:14:49Z</time>
      </trkpt>
      <trkpt lat="43.0228" lon="-0.09858">
        <ele>436.1</ele>
        <time>2013-12-11T14:15:00Z</time>
      </trkpt>
      <trkpt lat="43.02285" lon="-0.09878">
        <ele>439.46</ele>
        <time>2013-12-11T14:15:11Z</time>
      </trkpt>
      <trkpt lat="43.02281" lon="-0.09893">
        <ele>442.82</ele>
        <time>2013-12-11T14:15:21Z</time>
      </trkpt>
      <trkpt lat="43.02281" lon="-0.09901">
        <ele>443.79</ele>
        <time>2013-12-11T14:15:25Z</time>
      </trkpt>
      <trkpt lat="43.02281" lon="-0.09908">
        <ele>445.23</ele>
        <time>2013-12-11T14:15:29Z</time>
      </trkpt>
      <trkpt lat="43.02278" lon="-0.0993">
        <ele>448.11</ele>
        <time>2013-12-11T14:15:40Z</time>
      </trkpt>
      <trkpt lat="43.02279" lon="-0.09941">
        <ele>449.07</ele>
        <time>2013-12-11T14:15:45Z</time>
      </trkpt>
      <trkpt lat="43.02278" lon="-0.09946">
        <ele>450.52</ele>
        <time>2013-12-11T14:15:48Z</time>
      </trkpt>
      <trkpt lat="43.02279" lon="-0.0997">
        <ele>452.44</ele>
        <time>2013-12-11T14:15:58Z</time>
      </trkpt>
      <trkpt lat="43.02279" lon="-0.09974">
        <ele>453.4</ele>
        <time>2013-12-11T14:16:00Z</time>
      </trkpt>
      <trkpt lat="43.02278" lon="-0.09985">
        <ele>454.36</ele>
        <time>2013-12-11T14:16:06Z</time>
      </trkpt>
      <trkpt lat="43.02266" lon="-0.09998">
        <ele>457.72</ele>
        <time>2013-12-11T14:16:19Z</time>
      </trkpt>
      <trkpt lat="43.0225" lon="-0.10013">
        <ele>459.65</ele>
        <time>2013-12-11T14:16:33Z</time>
      </trkpt>
      <trkpt lat="43.02248" lon="-0.10017">
        <ele>460.13</ele>
        <time>2013-12-11T14:16:35Z</time>
      </trkpt>
      <trkpt lat="43.02228" lon="-0.10035">
        <ele>462.53</ele>
        <time>2013-12-11T14:16:49Z</time>
      </trkpt>
      <trkpt lat="43.02206" lon="-0.10026">
        <ele>464.45</ele>
        <time>2013-12-11T14:17:03Z</time>
      </trkpt>
      <trkpt lat="43.02203" lon="-0.10026">
        <ele>464.45</ele>
        <time>2013-12-11T14:17:05Z</time>
      </trkpt>
      <trkpt lat="43.0219" lon="-0.10024">
        <ele>465.9</ele>
        <time>2013-12-11T14:17:12Z</time>
      </trkpt>
      <trkpt lat="43.02162" lon="-0.10023">
        <ele>467.82</ele>
        <time>2013-12-11T14:17:28Z</time>
      </trkpt>
      <trkpt lat="43.02146" lon="-0.10026">
        <ele>468.78</ele>
        <time>2013-12-11T14:17:38Z</time>
      </trkpt>
      <trkpt lat="43.02142" lon="-0.10031">
        <ele>469.26</ele>
        <time>2013-12-11T14:17:43Z</time>
      </trkpt>
      <trkpt lat="43.02141" lon="-0.10026">
        <ele>469.26</ele>
        <time>2013-12-11T14:17:48Z</time>
      </trkpt>
      <trkpt lat="43.02146" lon="-0.10026">
        <ele>469.26</ele>
        <time>2013-12-11T14:17:51Z</time>
      </trkpt>
      <trkpt lat="43.02141" lon="-0.10031">
        <ele>469.26</ele>
        <time>2013-12-11T14:17:58Z</time>
      </trkpt>
      <trkpt lat="43.02142" lon="-0.10031">
        <ele>469.74</ele>
        <time>2013-12-11T14:17:59Z</time>
      </trkpt>
      <trkpt lat="43.02148" lon="-0.1003">
        <ele>469.26</ele>
        <time>2013-12-11T14:18:09Z</time>
      </trkpt>
      <trkpt lat="43.02144" lon="-0.10028">
        <ele>469.26</ele>
        <time>2013-12-11T14:18:13Z</time>
      </trkpt>
      <trkpt lat="43.02161" lon="-0.10023">
        <ele>467.82</ele>
        <time>2013-12-11T14:18:22Z</time>
      </trkpt>
      <trkpt lat="43.0217" lon="-0.10023">
        <ele>466.86</ele>
        <time>2013-12-11T14:18:24Z</time>
      </trkpt>
      <trkpt lat="43.02186" lon="-0.10023">
        <ele>465.9</ele>
        <time>2013-12-11T14:18:27Z</time>
      </trkpt>
      <trkpt lat="43.02226" lon="-0.10037">
        <ele>462.53</ele>
        <time>2013-12-11T14:18:35Z</time>
      </trkpt>
      <trkpt lat="43.02245" lon="-0.10023">
        <ele>460.13</ele>
        <time>2013-12-11T14:18:42Z</time>
      </trkpt>
      <trkpt lat="43.02257" lon="-0.10008">
        <ele>458.21</ele>
        <time>2013-12-11T14:18:47Z</time>
      </trkpt>
      <trkpt lat="43.02264" lon="-0.10003">
        <ele>457.24</ele>
        <time>2013-12-11T14:18:49Z</time>
      </trkpt>
      <trkpt lat="43.02276" lon="-0.0999">
        <ele>455.32</ele>
        <time>2013-12-11T14:18:53Z</time>
      </trkpt>
      <trkpt lat="43.02279" lon="-0.09984">
        <ele>453.88</ele>
        <time>2013-12-11T14:18:56Z</time>
      </trkpt>
      <trkpt lat="43.0228" lon="-0.09966">
        <ele>451.96</ele>
        <time>2013-12-11T14:19:08Z</time>
      </trkpt>
      <trkpt lat="43.02281" lon="-0.0997">
        <ele>451.96</ele>
        <time>2013-12-11T14:19:12Z</time>
      </trkpt>
      <trkpt lat="43.0228" lon="-0.09984">
        <ele>454.36</ele>
        <time>2013-12-11T14:19:23Z</time>
      </trkpt>
      <trkpt lat="43.02276" lon="-0.09991">
        <ele>454.84</ele>
        <time>2013-12-11T14:19:29Z</time>
      </trkpt>
      <trkpt lat="43.02266" lon="-0.1">
        <ele>457.72</ele>
        <time>2013-12-11T14:19:39Z</time>
      </trkpt>
      <trkpt lat="43.02252" lon="-0.10012">
        <ele>459.17</ele>
        <time>2013-12-11T14:19:51Z</time>
      </trkpt>
      <trkpt lat="43.0225" lon="-0.10014">
        <ele>459.65</ele>
        <time>2013-12-11T14:19:53Z</time>
      </trkpt>
      <trkpt lat="43.02244" lon="-0.10023">
        <ele>460.13</ele>
        <time>2013-12-11T14:20:00Z</time>
      </trkpt>
      <trkpt lat="43.02238" lon="-0.1003">
        <ele>461.09</ele>
        <time>2013-12-11T14:20:05Z</time>
      </trkpt>
      <trkpt lat="43.02236" lon="-0.10032">
        <ele>462.05</ele>
        <time>2013-12-11T14:20:07Z</time>
      </trkpt>
      <trkpt lat="43.0223" lon="-0.10034">
        <ele>462.53</ele>
        <time>2013-12-11T14:20:13Z</time>
      </trkpt>
      <trkpt lat="43.02207" lon="-0.10025">
        <ele>464.45</ele>
        <time>2013-12-11T14:20:29Z</time>
      </trkpt>
      <trkpt lat="43.02184" lon="-0.10022">
        <ele>465.9</ele>
        <time>2013-12-11T14:20:44Z</time>
      </trkpt>
      <trkpt lat="43.0216" lon="-0.10022">
        <ele>467.82</ele>
        <time>2013-12-11T14:20:58Z</time>
      </trkpt>
      <trkpt lat="43.02156" lon="-0.10022">
        <ele>468.3</ele>
        <time>2013-12-11T14:21:00Z</time>
      </trkpt>
      <trkpt lat="43.02149" lon="-0.10029">
        <ele>469.26</ele>
        <time>2013-12-11T14:21:06Z</time>
      </trkpt>
      <trkpt lat="43.02145" lon="-0.10026">
        <ele>469.26</ele>
        <time>2013-12-11T14:21:11Z</time>
      </trkpt>
      <trkpt lat="43.02146" lon="-0.10026">
        <ele>469.26</ele>
        <time>2013-12-11T14:21:26Z</time>
      </trkpt>
      <trkpt lat="43.02148" lon="-0.10029">
        <ele>468.78</ele>
        <time>2013-12-11T14:21:53Z</time>
      </trkpt>
      <trkpt lat="43.02139" lon="-0.10028">
        <ele>469.26</ele>
        <time>2013-12-11T14:22:00Z</time>
      </trkpt>
      <trkpt lat="43.02111" lon="-0.10016">
        <ele>469.26</ele>
        <time>2013-12-11T14:22:13Z</time>
      </trkpt>
      <trkpt lat="43.02088" lon="-0.09999">
        <ele>470.7</ele>
        <time>2013-12-11T14:22:24Z</time>
      </trkpt>
      <trkpt lat="43.02068" lon="-0.09983">
        <ele>468.78</ele>
        <time>2013-12-11T14:22:31Z</time>
      </trkpt>
      <trkpt lat="43.02051" lon="-0.09985">
        <ele>465.9</ele>
        <time>2013-12-11T14:22:35Z</time>
      </trkpt>
      <trkpt lat="43.02038" lon="-0.09985">
        <ele>463.49</ele>
        <time>2013-12-11T14:22:38Z</time>
      </trkpt>
      <trkpt lat="43.02024" lon="-0.09978">
        <ele>460.61</ele>
        <time>2013-12-11T14:22:41Z</time>
      </trkpt>
      <trkpt lat="43.02005" lon="-0.09956">
        <ele>458.21</ele>
        <time>2013-12-11T14:22:45Z</time>
      </trkpt>
      <trkpt lat="43.01994" lon="-0.09909">
        <ele>455.8</ele>
        <time>2013-12-11T14:22:51Z</time>
      </trkpt>
      <trkpt lat="43.01978" lon="-0.09889">
        <ele>452.44</ele>
        <time>2013-12-11T14:22:55Z</time>
      </trkpt>
      <trkpt lat="43.01949" lon="-0.0988">
        <ele>447.63</ele>
        <time>2013-12-11T14:22:59Z</time>
      </trkpt>
      <trkpt lat="43.01946" lon="-0.0985">
        <ele>445.23</ele>
        <time>2013-12-11T14:23:03Z</time>
      </trkpt>
      <trkpt lat="43.01948" lon="-0.09841">
        <ele>444.27</ele>
        <time>2013-12-11T14:23:04Z</time>
      </trkpt>
      <trkpt lat="43.01951" lon="-0.09806">
        <ele>441.38</ele>
        <time>2013-12-11T14:23:09Z</time>
      </trkpt>
      <trkpt lat="43.01951" lon="-0.09803">
        <ele>440.9</ele>
        <time>2013-12-11T14:23:10Z</time>
      </trkpt>
      <trkpt lat="43.0196" lon="-0.09793">
        <ele>440.42</ele>
        <time>2013-12-11T14:23:14Z</time>
      </trkpt>
      <trkpt lat="43.01974" lon="-0.09782">
        <ele>437.54</ele>
        <time>2013-12-11T14:23:17Z</time>
      </trkpt>
      <trkpt lat="43.02" lon="-0.0977">
        <ele>433.21</ele>
        <time>2013-12-11T14:23:21Z</time>
      </trkpt>
      <trkpt lat="43.02007" lon="-0.09766">
        <ele>432.73</ele>
        <time>2013-12-11T14:23:22Z</time>
      </trkpt>
      <trkpt lat="43.0202" lon="-0.09753">
        <ele>429.85</ele>
        <time>2013-12-11T14:23:26Z</time>
      </trkpt>
      <trkpt lat="43.02021" lon="-0.09749">
        <ele>429.37</ele>
        <time>2013-12-11T14:23:27Z</time>
      </trkpt>
      <trkpt lat="43.02003" lon="-0.0973">
        <ele>426.48</ele>
        <time>2013-12-11T14:23:35Z</time>
      </trkpt>
      <trkpt lat="43.01988" lon="-0.09713">
        <ele>424.56</ele>
        <time>2013-12-11T14:23:40Z</time>
      </trkpt>
      <trkpt lat="43.01962" lon="-0.09707">
        <ele>419.75</ele>
        <time>2013-12-11T14:23:44Z</time>
      </trkpt>
      <trkpt lat="43.01938" lon="-0.09707">
        <ele>417.35</ele>
        <time>2013-12-11T14:23:47Z</time>
      </trkpt>
      <trkpt lat="43.01917" lon="-0.09681">
        <ele>412.54</ele>
        <time>2013-12-11T14:23:52Z</time>
      </trkpt>
      <trkpt lat="43.01916" lon="-0.0968">
        <ele>412.54</ele>
        <time>2013-12-11T14:23:53Z</time>
      </trkpt>
      <trkpt lat="43.01917" lon="-0.09677">
        <ele>412.54</ele>
        <time>2013-12-11T14:24:07Z</time>
      </trkpt>
      <trkpt lat="43.01918" lon="-0.09677">
        <ele>412.54</ele>
        <time>2013-12-11T14:24:19Z</time>
      </trkpt>
      <trkpt lat="43.01922" lon="-0.09668">
        <ele>413.02</ele>
        <time>2013-12-11T14:24:23Z</time>
      </trkpt>
      <trkpt lat="43.01929" lon="-0.09658">
        <ele>412.06</ele>
        <time>2013-12-11T14:24:26Z</time>
      </trkpt>
      <trkpt lat="43.01936" lon="-0.09576">
        <ele>410.14</ele>
        <time>2013-12-11T14:24:38Z</time>
      </trkpt>
      <trkpt lat="43.01936" lon="-0.0957">
        <ele>409.66</ele>
        <time>2013-12-11T14:24:39Z</time>
      </trkpt>
      <trkpt lat="43.01916" lon="-0.0958">
        <ele>410.14</ele>
        <time>2013-12-11T14:24:47Z</time>
      </trkpt>
      <trkpt lat="43.01872" lon="-0.09621">
        <ele>410.14</ele>
        <time>2013-12-11T14:25:02Z</time>
      </trkpt>
      <trkpt lat="43.01841" lon="-0.09644">
        <ele>410.62</ele>
        <time>2013-12-11T14:25:11Z</time>
      </trkpt>
      <trkpt lat="43.01817" lon="-0.09657">
        <ele>410.62</ele>
        <time>2013-12-11T14:25:17Z</time>
      </trkpt>
      <trkpt lat="43.01809" lon="-0.0966">
        <ele>410.62</ele>
        <time>2013-12-11T14:25:19Z</time>
      </trkpt>
      <trkpt lat="43.01751" lon="-0.09683">
        <ele>410.62</ele>
        <time>2013-12-11T14:25:32Z</time>
      </trkpt>
      <trkpt lat="43.01681" lon="-0.09703">
        <ele>411.58</ele>
        <time>2013-12-11T14:25:46Z</time>
      </trkpt>
      <trkpt lat="43.01605" lon="-0.09721">
        <ele>411.58</ele>
        <time>2013-12-11T14:26:00Z</time>
      </trkpt>
      <trkpt lat="43.0151" lon="-0.09747">
        <ele>413.02</ele>
        <time>2013-12-11T14:26:15Z</time>
      </trkpt>
      <trkpt lat="43.01417" lon="-0.09771">
        <ele>413.5</ele>
        <time>2013-12-11T14:26:29Z</time>
      </trkpt>
      <trkpt lat="43.01378" lon="-0.09777">
        <ele>413.98</ele>
        <time>2013-12-11T14:26:34Z</time>
      </trkpt>
      <trkpt lat="43.01362" lon="-0.09778">
        <ele>413.98</ele>
        <time>2013-12-11T14:26:36Z</time>
      </trkpt>
      <trkpt lat="43.01322" lon="-0.09782">
        <ele>414.95</ele>
        <time>2013-12-11T14:26:41Z</time>
      </trkpt>
      <trkpt lat="43.01249" lon="-0.09785">
        <ele>414.47</ele>
        <time>2013-12-11T14:26:52Z</time>
      </trkpt>
      <trkpt lat="43.012" lon="-0.0979">
        <ele>413.5</ele>
        <time>2013-12-11T14:27:00Z</time>
      </trkpt>
      <trkpt lat="43.01138" lon="-0.09786">
        <ele>415.91</ele>
        <time>2013-12-11T14:27:14Z</time>
      </trkpt>
      <trkpt lat="43.01086" lon="-0.09784">
        <ele>417.35</ele>
        <time>2013-12-11T14:27:28Z</time>
      </trkpt>
      <trkpt lat="43.01041" lon="-0.09769">
        <ele>419.27</ele>
        <time>2013-12-11T14:27:41Z</time>
      </trkpt>
      <trkpt lat="43.0103" lon="-0.09762">
        <ele>419.75</ele>
        <time>2013-12-11T14:27:46Z</time>
      </trkpt>
      <trkpt lat="43.01016" lon="-0.09755">
        <ele>419.75</ele>
        <time>2013-12-11T14:27:53Z</time>
      </trkpt>
      <trkpt lat="43.01007" lon="-0.0975">
        <ele>420.23</ele>
        <time>2013-12-11T14:28:00Z</time>
      </trkpt>
      <trkpt lat="43.00992" lon="-0.09738">
        <ele>421.19</ele>
        <time>2013-12-11T14:28:08Z</time>
      </trkpt>
      <trkpt lat="43.0098" lon="-0.09731">
        <ele>421.68</ele>
        <time>2013-12-11T14:28:18Z</time>
      </trkpt>
      <trkpt lat="43.00979" lon="-0.09732">
        <ele>421.19</ele>
        <time>2013-12-11T14:28:24Z</time>
      </trkpt>
      <trkpt lat="43.00994" lon="-0.09741">
        <ele>421.19</ele>
        <time>2013-12-11T14:28:32Z</time>
      </trkpt>
      <trkpt lat="43.0101" lon="-0.09753">
        <ele>420.71</ele>
        <time>2013-12-11T14:28:39Z</time>
      </trkpt>
      <trkpt lat="43.01016" lon="-0.09757">
        <ele>420.23</ele>
        <time>2013-12-11T14:28:42Z</time>
      </trkpt>
      <trkpt lat="43.01039" lon="-0.09764">
        <ele>419.27</ele>
        <time>2013-12-11T14:28:55Z</time>
      </trkpt>
      <trkpt lat="43.01059" lon="-0.09772">
        <ele>418.31</ele>
        <time>2013-12-11T14:29:07Z</time>
      </trkpt>
      <trkpt lat="43.01049" lon="-0.09772">
        <ele>419.27</ele>
        <time>2013-12-11T14:29:13Z</time>
      </trkpt>
      <trkpt lat="43.00998" lon="-0.09744">
        <ele>421.19</ele>
        <time>2013-12-11T14:29:32Z</time>
      </trkpt>
      <trkpt lat="43.00966" lon="-0.0972">
        <ele>422.16</ele>
        <time>2013-12-11T14:29:46Z</time>
      </trkpt>
      <trkpt lat="43.00931" lon="-0.09686">
        <ele>423.12</ele>
        <time>2013-12-11T14:30:02Z</time>
      </trkpt>
      <trkpt lat="43.00894" lon="-0.09646">
        <ele>423.6</ele>
        <time>2013-12-11T14:30:16Z</time>
      </trkpt>
      <trkpt lat="43.00858" lon="-0.09603">
        <ele>423.12</ele>
        <time>2013-12-11T14:30:28Z</time>
      </trkpt>
      <trkpt lat="43.0084" lon="-0.09582">
        <ele>422.64</ele>
        <time>2013-12-11T14:30:34Z</time>
      </trkpt>
      <trkpt lat="43.0082" lon="-0.09558">
        <ele>422.64</ele>
        <time>2013-12-11T14:30:40Z</time>
      </trkpt>
      <trkpt lat="43.00804" lon="-0.09535">
        <ele>423.12</ele>
        <time>2013-12-11T14:30:46Z</time>
      </trkpt>
      <trkpt lat="43.00764" lon="-0.0949">
        <ele>423.12</ele>
        <time>2013-12-11T14:31:00Z</time>
      </trkpt>
      <trkpt lat="43.00749" lon="-0.09507">
        <ele>423.6</ele>
        <time>2013-12-11T14:31:08Z</time>
      </trkpt>
      <trkpt lat="43.00736" lon="-0.09503">
        <ele>423.6</ele>
        <time>2013-12-11T14:31:13Z</time>
      </trkpt>
      <trkpt lat="43.00726" lon="-0.09498">
        <ele>423.6</ele>
        <time>2013-12-11T14:31:26Z</time>
      </trkpt>
      <trkpt lat="43.00725" lon="-0.09497">
        <ele>423.6</ele>
        <time>2013-12-11T14:31:37Z</time>
      </trkpt>
      <trkpt lat="43.00723" lon="-0.09496">
        <ele>423.6</ele>
        <time>2013-12-11T14:31:54Z</time>
      </trkpt>
      <trkpt lat="43.00723" lon="-0.09495">
        <ele>423.12</ele>
        <time>2013-12-11T14:32:13Z</time>
      </trkpt>
      <trkpt lat="43.00723" lon="-0.09494">
        <ele>423.12</ele>
        <time>2013-12-11T14:32:44Z</time>
      </trkpt>
      <trkpt lat="43.00723" lon="-0.09494">
        <ele>423.12</ele>
        <time>2013-12-11T14:33:18Z</time>
      </trkpt>
      <trkpt lat="43.00723" lon="-0.09495">
        <ele>424.56</ele>
        <time>2013-12-11T14:33:39Z</time>
      </trkpt>
      <trkpt lat="43.00724" lon="-0.09494">
        <ele>424.08</ele>
        <time>2013-12-11T14:33:58Z</time>
      </trkpt>
      <trkpt lat="43.00724" lon="-0.09495">
        <ele>424.08</ele>
        <time>2013-12-11T14:34:16Z</time>
      </trkpt>
      <trkpt lat="43.00724" lon="-0.09496">
        <ele>424.08</ele>
        <time>2013-12-11T14:34:39Z</time>
      </trkpt>
      <trkpt lat="43.00725" lon="-0.09498">
        <ele>423.6</ele>
        <time>2013-12-11T14:35:05Z</time>
      </trkpt>
      <trkpt lat="43.00725" lon="-0.095">
        <ele>424.08</ele>
        <time>2013-12-11T14:35:34Z</time>
      </trkpt>
    </trkseg>
  </trk>
</gpx>